<?xml version="1.0" encoding="UTF-8" standalone="no" ?>
<gpx xmlns="http://www.topografix.com/GPX/1/1" xmlns:xsi="http://www.w3.org/2001/XMLSchema-instance" xsi:schemaLocation="http://www.topografix.com/GPX/1/1 http://www.topografix.com/GPX/1/1/gpx.xsd" version="1.1" creator="VisuGPX - https://www.visugpx.com">
  <metadata>
    <name>83-D-St Antonin</name>
    <desc><![CDATA[83-D-St Antonin : de la Roque Sanglé à la Font de l’Évoué       ]]></desc>
  </metadata>
  <trk>
    <name><![CDATA[2016-12-11-D-st antonin]]></name>
    <trkseg>
      <trkpt lat="43.51062" lon="6.30479">
        <ele>267.8</ele>
        <time>2016-12-11T08:19:56Z</time>
      </trkpt>
      <trkpt lat="43.51062" lon="6.30478">
        <ele>267.9</ele>
        <time>2016-12-11T08:19:57Z</time>
      </trkpt>
      <trkpt lat="43.51057" lon="6.3049">
        <ele>267.3</ele>
        <time>2016-12-11T08:20:59Z</time>
      </trkpt>
      <trkpt lat="43.51066" lon="6.30485">
        <ele>268.8</ele>
        <time>2016-12-11T08:22:03Z</time>
      </trkpt>
      <trkpt lat="43.51056" lon="6.30486">
        <ele>268.5</ele>
        <time>2016-12-11T08:25:41Z</time>
      </trkpt>
      <trkpt lat="43.51051" lon="6.30497">
        <ele>270.1</ele>
        <time>2016-12-11T08:25:53Z</time>
      </trkpt>
      <trkpt lat="43.51044" lon="6.30508">
        <ele>272</ele>
        <time>2016-12-11T08:26:06Z</time>
      </trkpt>
      <trkpt lat="43.51038" lon="6.30519">
        <ele>273.1</ele>
        <time>2016-12-11T08:26:16Z</time>
      </trkpt>
      <trkpt lat="43.51035" lon="6.30531">
        <ele>274</ele>
        <time>2016-12-11T08:26:24Z</time>
      </trkpt>
      <trkpt lat="43.51034" lon="6.30543">
        <ele>275</ele>
        <time>2016-12-11T08:26:34Z</time>
      </trkpt>
      <trkpt lat="43.51032" lon="6.30556">
        <ele>276.2</ele>
        <time>2016-12-11T08:26:42Z</time>
      </trkpt>
      <trkpt lat="43.5103" lon="6.30569">
        <ele>277.8</ele>
        <time>2016-12-11T08:26:52Z</time>
      </trkpt>
      <trkpt lat="43.51028" lon="6.30581">
        <ele>279</ele>
        <time>2016-12-11T08:27:03Z</time>
      </trkpt>
      <trkpt lat="43.51023" lon="6.30592">
        <ele>280.1</ele>
        <time>2016-12-11T08:27:14Z</time>
      </trkpt>
      <trkpt lat="43.51021" lon="6.30604">
        <ele>281.1</ele>
        <time>2016-12-11T08:27:24Z</time>
      </trkpt>
      <trkpt lat="43.51019" lon="6.30616">
        <ele>282</ele>
        <time>2016-12-11T08:27:34Z</time>
      </trkpt>
      <trkpt lat="43.51018" lon="6.30629">
        <ele>283</ele>
        <time>2016-12-11T08:27:45Z</time>
      </trkpt>
      <trkpt lat="43.51024" lon="6.30638">
        <ele>284.9</ele>
        <time>2016-12-11T08:28:00Z</time>
      </trkpt>
      <trkpt lat="43.51033" lon="6.30643">
        <ele>286.7</ele>
        <time>2016-12-11T08:28:12Z</time>
      </trkpt>
      <trkpt lat="43.51041" lon="6.30647">
        <ele>288</ele>
        <time>2016-12-11T08:28:22Z</time>
      </trkpt>
      <trkpt lat="43.51051" lon="6.3065">
        <ele>290.6</ele>
        <time>2016-12-11T08:28:41Z</time>
      </trkpt>
      <trkpt lat="43.51059" lon="6.30656">
        <ele>292.8</ele>
        <time>2016-12-11T08:28:57Z</time>
      </trkpt>
      <trkpt lat="43.51069" lon="6.3066">
        <ele>295.5</ele>
        <time>2016-12-11T08:29:14Z</time>
      </trkpt>
      <trkpt lat="43.51077" lon="6.30664">
        <ele>297.6</ele>
        <time>2016-12-11T08:29:27Z</time>
      </trkpt>
      <trkpt lat="43.51085" lon="6.30671">
        <ele>299.4</ele>
        <time>2016-12-11T08:29:37Z</time>
      </trkpt>
      <trkpt lat="43.5109" lon="6.30681">
        <ele>301.4</ele>
        <time>2016-12-11T08:29:51Z</time>
      </trkpt>
      <trkpt lat="43.51091" lon="6.30694">
        <ele>303</ele>
        <time>2016-12-11T08:30:03Z</time>
      </trkpt>
      <trkpt lat="43.51097" lon="6.30705">
        <ele>304.5</ele>
        <time>2016-12-11T08:30:14Z</time>
      </trkpt>
      <trkpt lat="43.51104" lon="6.30714">
        <ele>305.6</ele>
        <time>2016-12-11T08:30:23Z</time>
      </trkpt>
      <trkpt lat="43.51111" lon="6.30723">
        <ele>306.4</ele>
        <time>2016-12-11T08:30:31Z</time>
      </trkpt>
      <trkpt lat="43.5112" lon="6.30728">
        <ele>307.2</ele>
        <time>2016-12-11T08:30:39Z</time>
      </trkpt>
      <trkpt lat="43.51129" lon="6.30734">
        <ele>307.9</ele>
        <time>2016-12-11T08:30:48Z</time>
      </trkpt>
      <trkpt lat="43.51139" lon="6.30736">
        <ele>308.3</ele>
        <time>2016-12-11T08:30:56Z</time>
      </trkpt>
      <trkpt lat="43.51148" lon="6.3074">
        <ele>308.6</ele>
        <time>2016-12-11T08:31:05Z</time>
      </trkpt>
      <trkpt lat="43.51157" lon="6.30743">
        <ele>308.9</ele>
        <time>2016-12-11T08:31:16Z</time>
      </trkpt>
      <trkpt lat="43.51164" lon="6.3075">
        <ele>309.3</ele>
        <time>2016-12-11T08:31:28Z</time>
      </trkpt>
      <trkpt lat="43.5117" lon="6.30761">
        <ele>310.3</ele>
        <time>2016-12-11T08:31:41Z</time>
      </trkpt>
      <trkpt lat="43.51175" lon="6.30773">
        <ele>312.2</ele>
        <time>2016-12-11T08:31:57Z</time>
      </trkpt>
      <trkpt lat="43.51178" lon="6.30785">
        <ele>314</ele>
        <time>2016-12-11T08:32:10Z</time>
      </trkpt>
      <trkpt lat="43.51178" lon="6.30797">
        <ele>315</ele>
        <time>2016-12-11T08:32:19Z</time>
      </trkpt>
      <trkpt lat="43.51179" lon="6.30811">
        <ele>315.7</ele>
        <time>2016-12-11T08:32:28Z</time>
      </trkpt>
      <trkpt lat="43.51181" lon="6.30824">
        <ele>316.3</ele>
        <time>2016-12-11T08:32:38Z</time>
      </trkpt>
      <trkpt lat="43.51185" lon="6.30836">
        <ele>316.7</ele>
        <time>2016-12-11T08:32:48Z</time>
      </trkpt>
      <trkpt lat="43.51192" lon="6.30844">
        <ele>316.9</ele>
        <time>2016-12-11T08:32:56Z</time>
      </trkpt>
      <trkpt lat="43.51197" lon="6.30855">
        <ele>317.1</ele>
        <time>2016-12-11T08:33:04Z</time>
      </trkpt>
      <trkpt lat="43.51201" lon="6.30867">
        <ele>317.4</ele>
        <time>2016-12-11T08:33:17Z</time>
      </trkpt>
      <trkpt lat="43.51204" lon="6.30879">
        <ele>317.7</ele>
        <time>2016-12-11T08:33:28Z</time>
      </trkpt>
      <trkpt lat="43.51208" lon="6.30891">
        <ele>317.9</ele>
        <time>2016-12-11T08:33:37Z</time>
      </trkpt>
      <trkpt lat="43.51211" lon="6.30904">
        <ele>317.9</ele>
        <time>2016-12-11T08:33:44Z</time>
      </trkpt>
      <trkpt lat="43.51217" lon="6.30914">
        <ele>318</ele>
        <time>2016-12-11T08:33:52Z</time>
      </trkpt>
      <trkpt lat="43.51221" lon="6.30927">
        <ele>318</ele>
        <time>2016-12-11T08:34:02Z</time>
      </trkpt>
      <trkpt lat="43.51223" lon="6.3094">
        <ele>318</ele>
        <time>2016-12-11T08:34:19Z</time>
      </trkpt>
      <trkpt lat="43.51219" lon="6.30952">
        <ele>318.1</ele>
        <time>2016-12-11T08:34:30Z</time>
      </trkpt>
      <trkpt lat="43.51212" lon="6.30962">
        <ele>318.2</ele>
        <time>2016-12-11T08:34:41Z</time>
      </trkpt>
      <trkpt lat="43.51206" lon="6.30972">
        <ele>318.2</ele>
        <time>2016-12-11T08:34:48Z</time>
      </trkpt>
      <trkpt lat="43.51201" lon="6.30982">
        <ele>318.2</ele>
        <time>2016-12-11T08:34:54Z</time>
      </trkpt>
      <trkpt lat="43.51199" lon="6.30994">
        <ele>318</ele>
        <time>2016-12-11T08:35:03Z</time>
      </trkpt>
      <trkpt lat="43.51196" lon="6.31007">
        <ele>317.9</ele>
        <time>2016-12-11T08:35:11Z</time>
      </trkpt>
      <trkpt lat="43.51195" lon="6.3102">
        <ele>317.5</ele>
        <time>2016-12-11T08:35:18Z</time>
      </trkpt>
      <trkpt lat="43.5119" lon="6.3103">
        <ele>317.2</ele>
        <time>2016-12-11T08:35:25Z</time>
      </trkpt>
      <trkpt lat="43.51188" lon="6.31043">
        <ele>316.9</ele>
        <time>2016-12-11T08:35:34Z</time>
      </trkpt>
      <trkpt lat="43.51183" lon="6.31055">
        <ele>316.5</ele>
        <time>2016-12-11T08:35:44Z</time>
      </trkpt>
      <trkpt lat="43.51181" lon="6.31069">
        <ele>316.1</ele>
        <time>2016-12-11T08:35:52Z</time>
      </trkpt>
      <trkpt lat="43.51177" lon="6.3108">
        <ele>315.7</ele>
        <time>2016-12-11T08:35:58Z</time>
      </trkpt>
      <trkpt lat="43.51174" lon="6.31093">
        <ele>315.1</ele>
        <time>2016-12-11T08:36:06Z</time>
      </trkpt>
      <trkpt lat="43.51173" lon="6.31106">
        <ele>314.4</ele>
        <time>2016-12-11T08:36:15Z</time>
      </trkpt>
      <trkpt lat="43.51172" lon="6.31119">
        <ele>312.4</ele>
        <time>2016-12-11T08:37:20Z</time>
      </trkpt>
      <trkpt lat="43.51174" lon="6.31132">
        <ele>312.4</ele>
        <time>2016-12-11T08:37:31Z</time>
      </trkpt>
      <trkpt lat="43.51175" lon="6.31146">
        <ele>312.4</ele>
        <time>2016-12-11T08:37:41Z</time>
      </trkpt>
      <trkpt lat="43.51175" lon="6.31159">
        <ele>312.7</ele>
        <time>2016-12-11T08:37:52Z</time>
      </trkpt>
      <trkpt lat="43.51175" lon="6.31173">
        <ele>313.1</ele>
        <time>2016-12-11T08:38:02Z</time>
      </trkpt>
      <trkpt lat="43.51176" lon="6.31186">
        <ele>313.2</ele>
        <time>2016-12-11T08:38:12Z</time>
      </trkpt>
      <trkpt lat="43.51175" lon="6.31199">
        <ele>313.4</ele>
        <time>2016-12-11T08:38:23Z</time>
      </trkpt>
      <trkpt lat="43.51178" lon="6.31211">
        <ele>313.4</ele>
        <time>2016-12-11T08:38:32Z</time>
      </trkpt>
      <trkpt lat="43.51183" lon="6.31222">
        <ele>313.6</ele>
        <time>2016-12-11T08:38:39Z</time>
      </trkpt>
      <trkpt lat="43.51185" lon="6.31234">
        <ele>313.7</ele>
        <time>2016-12-11T08:38:52Z</time>
      </trkpt>
      <trkpt lat="43.51186" lon="6.31247">
        <ele>314</ele>
        <time>2016-12-11T08:39:07Z</time>
      </trkpt>
      <trkpt lat="43.5119" lon="6.31259">
        <ele>314.2</ele>
        <time>2016-12-11T08:39:16Z</time>
      </trkpt>
      <trkpt lat="43.51191" lon="6.31273">
        <ele>314.7</ele>
        <time>2016-12-11T08:39:27Z</time>
      </trkpt>
      <trkpt lat="43.51197" lon="6.31282">
        <ele>315.6</ele>
        <time>2016-12-11T08:39:48Z</time>
      </trkpt>
      <trkpt lat="43.51206" lon="6.31287">
        <ele>316.4</ele>
        <time>2016-12-11T08:40:22Z</time>
      </trkpt>
      <trkpt lat="43.51215" lon="6.31287">
        <ele>317.2</ele>
        <time>2016-12-11T08:40:36Z</time>
      </trkpt>
      <trkpt lat="43.51225" lon="6.31291">
        <ele>317.9</ele>
        <time>2016-12-11T08:40:49Z</time>
      </trkpt>
      <trkpt lat="43.51234" lon="6.31294">
        <ele>318.1</ele>
        <time>2016-12-11T08:41:01Z</time>
      </trkpt>
      <trkpt lat="43.51243" lon="6.31297">
        <ele>318.2</ele>
        <time>2016-12-11T08:41:10Z</time>
      </trkpt>
      <trkpt lat="43.51253" lon="6.31299">
        <ele>318.5</ele>
        <time>2016-12-11T08:41:18Z</time>
      </trkpt>
      <trkpt lat="43.51263" lon="6.31296">
        <ele>318.6</ele>
        <time>2016-12-11T08:41:27Z</time>
      </trkpt>
      <trkpt lat="43.51272" lon="6.31293">
        <ele>318.4</ele>
        <time>2016-12-11T08:41:35Z</time>
      </trkpt>
      <trkpt lat="43.51281" lon="6.31287">
        <ele>318.1</ele>
        <time>2016-12-11T08:41:44Z</time>
      </trkpt>
      <trkpt lat="43.51289" lon="6.3128">
        <ele>317.2</ele>
        <time>2016-12-11T08:41:59Z</time>
      </trkpt>
      <trkpt lat="43.51296" lon="6.3127">
        <ele>316.3</ele>
        <time>2016-12-11T08:42:08Z</time>
      </trkpt>
      <trkpt lat="43.51305" lon="6.31267">
        <ele>315.5</ele>
        <time>2016-12-11T08:42:17Z</time>
      </trkpt>
      <trkpt lat="43.51313" lon="6.3126">
        <ele>314.4</ele>
        <time>2016-12-11T08:42:33Z</time>
      </trkpt>
      <trkpt lat="43.51321" lon="6.31251">
        <ele>312.5</ele>
        <time>2016-12-11T08:43:12Z</time>
      </trkpt>
      <trkpt lat="43.5133" lon="6.31248">
        <ele>312.1</ele>
        <time>2016-12-11T08:43:20Z</time>
      </trkpt>
      <trkpt lat="43.5134" lon="6.31246">
        <ele>311.3</ele>
        <time>2016-12-11T08:43:31Z</time>
      </trkpt>
      <trkpt lat="43.51349" lon="6.31245">
        <ele>310.8</ele>
        <time>2016-12-11T08:43:36Z</time>
      </trkpt>
      <trkpt lat="43.51358" lon="6.31241">
        <ele>310.2</ele>
        <time>2016-12-11T08:43:45Z</time>
      </trkpt>
      <trkpt lat="43.51368" lon="6.3124">
        <ele>309.5</ele>
        <time>2016-12-11T08:43:52Z</time>
      </trkpt>
      <trkpt lat="43.51377" lon="6.31244">
        <ele>308.9</ele>
        <time>2016-12-11T08:44:01Z</time>
      </trkpt>
      <trkpt lat="43.51385" lon="6.31252">
        <ele>308</ele>
        <time>2016-12-11T08:44:11Z</time>
      </trkpt>
      <trkpt lat="43.51392" lon="6.3126">
        <ele>306.8</ele>
        <time>2016-12-11T08:44:20Z</time>
      </trkpt>
      <trkpt lat="43.51399" lon="6.31269">
        <ele>304.9</ele>
        <time>2016-12-11T08:44:34Z</time>
      </trkpt>
      <trkpt lat="43.51406" lon="6.31278">
        <ele>303.1</ele>
        <time>2016-12-11T08:44:47Z</time>
      </trkpt>
      <trkpt lat="43.51412" lon="6.31288">
        <ele>301.8</ele>
        <time>2016-12-11T08:44:57Z</time>
      </trkpt>
      <trkpt lat="43.5142" lon="6.31294">
        <ele>300.4</ele>
        <time>2016-12-11T08:45:07Z</time>
      </trkpt>
      <trkpt lat="43.51429" lon="6.31299">
        <ele>299.3</ele>
        <time>2016-12-11T08:45:18Z</time>
      </trkpt>
      <trkpt lat="43.51439" lon="6.31297">
        <ele>298.2</ele>
        <time>2016-12-11T08:45:27Z</time>
      </trkpt>
      <trkpt lat="43.51447" lon="6.31288">
        <ele>297.1</ele>
        <time>2016-12-11T08:45:41Z</time>
      </trkpt>
      <trkpt lat="43.51452" lon="6.31277">
        <ele>296.5</ele>
        <time>2016-12-11T08:46:12Z</time>
      </trkpt>
      <trkpt lat="43.51461" lon="6.31272">
        <ele>298.1</ele>
        <time>2016-12-11T08:46:58Z</time>
      </trkpt>
      <trkpt lat="43.51469" lon="6.31267">
        <ele>298.2</ele>
        <time>2016-12-11T08:47:12Z</time>
      </trkpt>
      <trkpt lat="43.51478" lon="6.31263">
        <ele>298.2</ele>
        <time>2016-12-11T08:47:21Z</time>
      </trkpt>
      <trkpt lat="43.51487" lon="6.3126">
        <ele>298.3</ele>
        <time>2016-12-11T08:47:31Z</time>
      </trkpt>
      <trkpt lat="43.51496" lon="6.31257">
        <ele>298.3</ele>
        <time>2016-12-11T08:47:40Z</time>
      </trkpt>
      <trkpt lat="43.51505" lon="6.31251">
        <ele>298.3</ele>
        <time>2016-12-11T08:47:50Z</time>
      </trkpt>
      <trkpt lat="43.51513" lon="6.31245">
        <ele>298.5</ele>
        <time>2016-12-11T08:48:14Z</time>
      </trkpt>
      <trkpt lat="43.51522" lon="6.3124">
        <ele>298.6</ele>
        <time>2016-12-11T08:48:26Z</time>
      </trkpt>
      <trkpt lat="43.5153" lon="6.31233">
        <ele>299</ele>
        <time>2016-12-11T08:48:39Z</time>
      </trkpt>
      <trkpt lat="43.51536" lon="6.31224">
        <ele>299.3</ele>
        <time>2016-12-11T08:48:48Z</time>
      </trkpt>
      <trkpt lat="43.51543" lon="6.31216">
        <ele>299.6</ele>
        <time>2016-12-11T08:48:57Z</time>
      </trkpt>
      <trkpt lat="43.51548" lon="6.31206">
        <ele>299.8</ele>
        <time>2016-12-11T08:49:07Z</time>
      </trkpt>
      <trkpt lat="43.51554" lon="6.31195">
        <ele>300.1</ele>
        <time>2016-12-11T08:49:17Z</time>
      </trkpt>
      <trkpt lat="43.5156" lon="6.31185">
        <ele>300.8</ele>
        <time>2016-12-11T08:49:26Z</time>
      </trkpt>
      <trkpt lat="43.51566" lon="6.31175">
        <ele>301.4</ele>
        <time>2016-12-11T08:49:37Z</time>
      </trkpt>
      <trkpt lat="43.51575" lon="6.31169">
        <ele>301.7</ele>
        <time>2016-12-11T08:49:48Z</time>
      </trkpt>
      <trkpt lat="43.51585" lon="6.31166">
        <ele>302</ele>
        <time>2016-12-11T08:49:56Z</time>
      </trkpt>
      <trkpt lat="43.51594" lon="6.3116">
        <ele>302.3</ele>
        <time>2016-12-11T08:50:06Z</time>
      </trkpt>
      <trkpt lat="43.51602" lon="6.31153">
        <ele>302.5</ele>
        <time>2016-12-11T08:50:14Z</time>
      </trkpt>
      <trkpt lat="43.51611" lon="6.31145">
        <ele>302.6</ele>
        <time>2016-12-11T08:50:24Z</time>
      </trkpt>
      <trkpt lat="43.51619" lon="6.31139">
        <ele>302.7</ele>
        <time>2016-12-11T08:50:31Z</time>
      </trkpt>
      <trkpt lat="43.51626" lon="6.31132">
        <ele>302.7</ele>
        <time>2016-12-11T08:50:39Z</time>
      </trkpt>
      <trkpt lat="43.51635" lon="6.31126">
        <ele>302.9</ele>
        <time>2016-12-11T08:50:47Z</time>
      </trkpt>
      <trkpt lat="43.51644" lon="6.31121">
        <ele>303.3</ele>
        <time>2016-12-11T08:50:55Z</time>
      </trkpt>
      <trkpt lat="43.51654" lon="6.31115">
        <ele>303.9</ele>
        <time>2016-12-11T08:51:04Z</time>
      </trkpt>
      <trkpt lat="43.51663" lon="6.31112">
        <ele>304.3</ele>
        <time>2016-12-11T08:51:12Z</time>
      </trkpt>
      <trkpt lat="43.51673" lon="6.31112">
        <ele>305.3</ele>
        <time>2016-12-11T08:51:22Z</time>
      </trkpt>
      <trkpt lat="43.51682" lon="6.31116">
        <ele>305.7</ele>
        <time>2016-12-11T08:51:32Z</time>
      </trkpt>
      <trkpt lat="43.51691" lon="6.31119">
        <ele>306.2</ele>
        <time>2016-12-11T08:51:40Z</time>
      </trkpt>
      <trkpt lat="43.51698" lon="6.31127">
        <ele>306.6</ele>
        <time>2016-12-11T08:51:48Z</time>
      </trkpt>
      <trkpt lat="43.51707" lon="6.31132">
        <ele>307.2</ele>
        <time>2016-12-11T08:51:57Z</time>
      </trkpt>
      <trkpt lat="43.51716" lon="6.31135">
        <ele>307.7</ele>
        <time>2016-12-11T08:52:04Z</time>
      </trkpt>
      <trkpt lat="43.51725" lon="6.31135">
        <ele>308.4</ele>
        <time>2016-12-11T08:52:17Z</time>
      </trkpt>
      <trkpt lat="43.51733" lon="6.31143">
        <ele>308.9</ele>
        <time>2016-12-11T08:52:28Z</time>
      </trkpt>
      <trkpt lat="43.51741" lon="6.31149">
        <ele>309.9</ele>
        <time>2016-12-11T08:53:17Z</time>
      </trkpt>
      <trkpt lat="43.5175" lon="6.31142">
        <ele>310.3</ele>
        <time>2016-12-11T08:53:34Z</time>
      </trkpt>
      <trkpt lat="43.51756" lon="6.31131">
        <ele>310.5</ele>
        <time>2016-12-11T08:53:40Z</time>
      </trkpt>
      <trkpt lat="43.51757" lon="6.31118">
        <ele>310.6</ele>
        <time>2016-12-11T08:53:50Z</time>
      </trkpt>
      <trkpt lat="43.51756" lon="6.31105">
        <ele>310.5</ele>
        <time>2016-12-11T08:54:01Z</time>
      </trkpt>
      <trkpt lat="43.51755" lon="6.31091">
        <ele>310.4</ele>
        <time>2016-12-11T08:54:13Z</time>
      </trkpt>
      <trkpt lat="43.51758" lon="6.31078">
        <ele>310.4</ele>
        <time>2016-12-11T08:54:22Z</time>
      </trkpt>
      <trkpt lat="43.51762" lon="6.31067">
        <ele>310.3</ele>
        <time>2016-12-11T08:54:27Z</time>
      </trkpt>
      <trkpt lat="43.51767" lon="6.31055">
        <ele>309.8</ele>
        <time>2016-12-11T08:54:40Z</time>
      </trkpt>
      <trkpt lat="43.51768" lon="6.31042">
        <ele>309.2</ele>
        <time>2016-12-11T08:54:51Z</time>
      </trkpt>
      <trkpt lat="43.51767" lon="6.31029">
        <ele>309</ele>
        <time>2016-12-11T08:55:03Z</time>
      </trkpt>
      <trkpt lat="43.51773" lon="6.31018">
        <ele>308.8</ele>
        <time>2016-12-11T08:55:12Z</time>
      </trkpt>
      <trkpt lat="43.51778" lon="6.31007">
        <ele>308.4</ele>
        <time>2016-12-11T08:55:22Z</time>
      </trkpt>
      <trkpt lat="43.51782" lon="6.30996">
        <ele>308.1</ele>
        <time>2016-12-11T08:55:30Z</time>
      </trkpt>
      <trkpt lat="43.51789" lon="6.30987">
        <ele>307.8</ele>
        <time>2016-12-11T08:55:35Z</time>
      </trkpt>
      <trkpt lat="43.51794" lon="6.30976">
        <ele>307.2</ele>
        <time>2016-12-11T08:55:46Z</time>
      </trkpt>
      <trkpt lat="43.51801" lon="6.30967">
        <ele>306.5</ele>
        <time>2016-12-11T08:55:59Z</time>
      </trkpt>
      <trkpt lat="43.5181" lon="6.30962">
        <ele>306.2</ele>
        <time>2016-12-11T08:56:07Z</time>
      </trkpt>
      <trkpt lat="43.51818" lon="6.30956">
        <ele>305.9</ele>
        <time>2016-12-11T08:56:18Z</time>
      </trkpt>
      <trkpt lat="43.51824" lon="6.30944">
        <ele>306</ele>
        <time>2016-12-11T08:56:26Z</time>
      </trkpt>
      <trkpt lat="43.5183" lon="6.30933">
        <ele>306</ele>
        <time>2016-12-11T08:56:31Z</time>
      </trkpt>
      <trkpt lat="43.51834" lon="6.3092">
        <ele>306</ele>
        <time>2016-12-11T08:56:38Z</time>
      </trkpt>
      <trkpt lat="43.51839" lon="6.30908">
        <ele>305.9</ele>
        <time>2016-12-11T08:56:46Z</time>
      </trkpt>
      <trkpt lat="43.51843" lon="6.30896">
        <ele>305.9</ele>
        <time>2016-12-11T08:56:53Z</time>
      </trkpt>
      <trkpt lat="43.51848" lon="6.30883">
        <ele>306</ele>
        <time>2016-12-11T08:57:03Z</time>
      </trkpt>
      <trkpt lat="43.51852" lon="6.30871">
        <ele>306</ele>
        <time>2016-12-11T08:57:09Z</time>
      </trkpt>
      <trkpt lat="43.51854" lon="6.30858">
        <ele>306.1</ele>
        <time>2016-12-11T08:57:19Z</time>
      </trkpt>
      <trkpt lat="43.51859" lon="6.30847">
        <ele>305.9</ele>
        <time>2016-12-11T08:57:26Z</time>
      </trkpt>
      <trkpt lat="43.51864" lon="6.30837">
        <ele>305.6</ele>
        <time>2016-12-11T08:57:35Z</time>
      </trkpt>
      <trkpt lat="43.51868" lon="6.30825">
        <ele>305.5</ele>
        <time>2016-12-11T08:57:47Z</time>
      </trkpt>
      <trkpt lat="43.51873" lon="6.30813">
        <ele>305.2</ele>
        <time>2016-12-11T08:58:00Z</time>
      </trkpt>
      <trkpt lat="43.51877" lon="6.30802">
        <ele>305.2</ele>
        <time>2016-12-11T08:58:08Z</time>
      </trkpt>
      <trkpt lat="43.51883" lon="6.30791">
        <ele>305.4</ele>
        <time>2016-12-11T08:58:14Z</time>
      </trkpt>
      <trkpt lat="43.51883" lon="6.30777">
        <ele>305.9</ele>
        <time>2016-12-11T08:58:23Z</time>
      </trkpt>
      <trkpt lat="43.51885" lon="6.30764">
        <ele>306.3</ele>
        <time>2016-12-11T08:58:31Z</time>
      </trkpt>
      <trkpt lat="43.51887" lon="6.3075">
        <ele>306.5</ele>
        <time>2016-12-11T08:58:38Z</time>
      </trkpt>
      <trkpt lat="43.51882" lon="6.30741">
        <ele>306.6</ele>
        <time>2016-12-11T08:58:45Z</time>
      </trkpt>
      <trkpt lat="43.51882" lon="6.30728">
        <ele>306.7</ele>
        <time>2016-12-11T08:58:53Z</time>
      </trkpt>
      <trkpt lat="43.51883" lon="6.30716">
        <ele>306.7</ele>
        <time>2016-12-11T08:59:01Z</time>
      </trkpt>
      <trkpt lat="43.51884" lon="6.30703">
        <ele>306.6</ele>
        <time>2016-12-11T08:59:12Z</time>
      </trkpt>
      <trkpt lat="43.51888" lon="6.30692">
        <ele>306.3</ele>
        <time>2016-12-11T08:59:21Z</time>
      </trkpt>
      <trkpt lat="43.51891" lon="6.3068">
        <ele>306.1</ele>
        <time>2016-12-11T08:59:28Z</time>
      </trkpt>
      <trkpt lat="43.51894" lon="6.30667">
        <ele>305.8</ele>
        <time>2016-12-11T08:59:37Z</time>
      </trkpt>
      <trkpt lat="43.51899" lon="6.30656">
        <ele>305.7</ele>
        <time>2016-12-11T08:59:43Z</time>
      </trkpt>
      <trkpt lat="43.51901" lon="6.30642">
        <ele>305.6</ele>
        <time>2016-12-11T08:59:52Z</time>
      </trkpt>
      <trkpt lat="43.51901" lon="6.3063">
        <ele>305.4</ele>
        <time>2016-12-11T09:00:01Z</time>
      </trkpt>
      <trkpt lat="43.51901" lon="6.30616">
        <ele>305</ele>
        <time>2016-12-11T09:00:09Z</time>
      </trkpt>
      <trkpt lat="43.51899" lon="6.30603">
        <ele>304.9</ele>
        <time>2016-12-11T09:00:18Z</time>
      </trkpt>
      <trkpt lat="43.51899" lon="6.3059">
        <ele>304.7</ele>
        <time>2016-12-11T09:00:27Z</time>
      </trkpt>
      <trkpt lat="43.51898" lon="6.30577">
        <ele>304.4</ele>
        <time>2016-12-11T09:00:36Z</time>
      </trkpt>
      <trkpt lat="43.51893" lon="6.30566">
        <ele>303.8</ele>
        <time>2016-12-11T09:00:47Z</time>
      </trkpt>
      <trkpt lat="43.51892" lon="6.30554">
        <ele>303.3</ele>
        <time>2016-12-11T09:00:55Z</time>
      </trkpt>
      <trkpt lat="43.51894" lon="6.30541">
        <ele>302.8</ele>
        <time>2016-12-11T09:01:04Z</time>
      </trkpt>
      <trkpt lat="43.51894" lon="6.30528">
        <ele>302.1</ele>
        <time>2016-12-11T09:01:14Z</time>
      </trkpt>
      <trkpt lat="43.51897" lon="6.30517">
        <ele>301.5</ele>
        <time>2016-12-11T09:01:21Z</time>
      </trkpt>
      <trkpt lat="43.51896" lon="6.30504">
        <ele>300.8</ele>
        <time>2016-12-11T09:01:32Z</time>
      </trkpt>
      <trkpt lat="43.51895" lon="6.30491">
        <ele>300.1</ele>
        <time>2016-12-11T09:01:43Z</time>
      </trkpt>
      <trkpt lat="43.51899" lon="6.30478">
        <ele>299.6</ele>
        <time>2016-12-11T09:01:52Z</time>
      </trkpt>
      <trkpt lat="43.51903" lon="6.30466">
        <ele>299.2</ele>
        <time>2016-12-11T09:02:01Z</time>
      </trkpt>
      <trkpt lat="43.51906" lon="6.30454">
        <ele>298.7</ele>
        <time>2016-12-11T09:02:10Z</time>
      </trkpt>
      <trkpt lat="43.51912" lon="6.30444">
        <ele>298.1</ele>
        <time>2016-12-11T09:02:18Z</time>
      </trkpt>
      <trkpt lat="43.51916" lon="6.30432">
        <ele>297.7</ele>
        <time>2016-12-11T09:02:25Z</time>
      </trkpt>
      <trkpt lat="43.51922" lon="6.3042">
        <ele>296.9</ele>
        <time>2016-12-11T09:02:34Z</time>
      </trkpt>
      <trkpt lat="43.51926" lon="6.30409">
        <ele>295.5</ele>
        <time>2016-12-11T09:02:46Z</time>
      </trkpt>
      <trkpt lat="43.51931" lon="6.30397">
        <ele>294.9</ele>
        <time>2016-12-11T09:02:57Z</time>
      </trkpt>
      <trkpt lat="43.51937" lon="6.30386">
        <ele>294.3</ele>
        <time>2016-12-11T09:03:07Z</time>
      </trkpt>
      <trkpt lat="43.51943" lon="6.30376">
        <ele>293.8</ele>
        <time>2016-12-11T09:03:17Z</time>
      </trkpt>
      <trkpt lat="43.51947" lon="6.30364">
        <ele>293.3</ele>
        <time>2016-12-11T09:03:25Z</time>
      </trkpt>
      <trkpt lat="43.51951" lon="6.30351">
        <ele>292.6</ele>
        <time>2016-12-11T09:03:38Z</time>
      </trkpt>
      <trkpt lat="43.51957" lon="6.30341">
        <ele>292.3</ele>
        <time>2016-12-11T09:03:45Z</time>
      </trkpt>
      <trkpt lat="43.5196" lon="6.30327">
        <ele>292</ele>
        <time>2016-12-11T09:03:54Z</time>
      </trkpt>
      <trkpt lat="43.51962" lon="6.30316">
        <ele>291.6</ele>
        <time>2016-12-11T09:04:02Z</time>
      </trkpt>
      <trkpt lat="43.51968" lon="6.30304">
        <ele>290.8</ele>
        <time>2016-12-11T09:04:17Z</time>
      </trkpt>
      <trkpt lat="43.51974" lon="6.30292">
        <ele>290.3</ele>
        <time>2016-12-11T09:04:29Z</time>
      </trkpt>
      <trkpt lat="43.51981" lon="6.30283">
        <ele>290</ele>
        <time>2016-12-11T09:04:36Z</time>
      </trkpt>
      <trkpt lat="43.51987" lon="6.30273">
        <ele>289.5</ele>
        <time>2016-12-11T09:04:46Z</time>
      </trkpt>
      <trkpt lat="43.51995" lon="6.30269">
        <ele>288.9</ele>
        <time>2016-12-11T09:04:55Z</time>
      </trkpt>
      <trkpt lat="43.52004" lon="6.30261">
        <ele>288.7</ele>
        <time>2016-12-11T09:05:04Z</time>
      </trkpt>
      <trkpt lat="43.52013" lon="6.30258">
        <ele>288.5</ele>
        <time>2016-12-11T09:05:11Z</time>
      </trkpt>
      <trkpt lat="43.52022" lon="6.30261">
        <ele>288.3</ele>
        <time>2016-12-11T09:05:59Z</time>
      </trkpt>
      <trkpt lat="43.52029" lon="6.30254">
        <ele>288.9</ele>
        <time>2016-12-11T09:09:20Z</time>
      </trkpt>
      <trkpt lat="43.52038" lon="6.30257">
        <ele>289.3</ele>
        <time>2016-12-11T09:09:40Z</time>
      </trkpt>
      <trkpt lat="43.52047" lon="6.30262">
        <ele>289.8</ele>
        <time>2016-12-11T09:10:04Z</time>
      </trkpt>
      <trkpt lat="43.52055" lon="6.30268">
        <ele>290.5</ele>
        <time>2016-12-11T09:10:21Z</time>
      </trkpt>
      <trkpt lat="43.5206" lon="6.30279">
        <ele>291.6</ele>
        <time>2016-12-11T09:10:40Z</time>
      </trkpt>
      <trkpt lat="43.52068" lon="6.30287">
        <ele>292</ele>
        <time>2016-12-11T09:11:01Z</time>
      </trkpt>
      <trkpt lat="43.52075" lon="6.30295">
        <ele>292.3</ele>
        <time>2016-12-11T09:11:11Z</time>
      </trkpt>
      <trkpt lat="43.52084" lon="6.30301">
        <ele>292.4</ele>
        <time>2016-12-11T09:11:20Z</time>
      </trkpt>
      <trkpt lat="43.52092" lon="6.30305">
        <ele>292.7</ele>
        <time>2016-12-11T09:11:29Z</time>
      </trkpt>
      <trkpt lat="43.52101" lon="6.3031">
        <ele>293.5</ele>
        <time>2016-12-11T09:11:54Z</time>
      </trkpt>
      <trkpt lat="43.52107" lon="6.30322">
        <ele>293.4</ele>
        <time>2016-12-11T09:12:14Z</time>
      </trkpt>
      <trkpt lat="43.52114" lon="6.30329">
        <ele>293.3</ele>
        <time>2016-12-11T09:12:24Z</time>
      </trkpt>
      <trkpt lat="43.52113" lon="6.30342">
        <ele>294.4</ele>
        <time>2016-12-11T09:12:54Z</time>
      </trkpt>
      <trkpt lat="43.52109" lon="6.30354">
        <ele>295.1</ele>
        <time>2016-12-11T09:13:08Z</time>
      </trkpt>
      <trkpt lat="43.52108" lon="6.30367">
        <ele>296.4</ele>
        <time>2016-12-11T09:13:27Z</time>
      </trkpt>
      <trkpt lat="43.52107" lon="6.30379">
        <ele>297.7</ele>
        <time>2016-12-11T09:13:41Z</time>
      </trkpt>
      <trkpt lat="43.52105" lon="6.30393">
        <ele>298.6</ele>
        <time>2016-12-11T09:13:52Z</time>
      </trkpt>
      <trkpt lat="43.52105" lon="6.30406">
        <ele>299.2</ele>
        <time>2016-12-11T09:13:59Z</time>
      </trkpt>
      <trkpt lat="43.52108" lon="6.30419">
        <ele>300.2</ele>
        <time>2016-12-11T09:14:09Z</time>
      </trkpt>
      <trkpt lat="43.52108" lon="6.30432">
        <ele>300.9</ele>
        <time>2016-12-11T09:14:17Z</time>
      </trkpt>
      <trkpt lat="43.52107" lon="6.30445">
        <ele>301.4</ele>
        <time>2016-12-11T09:14:25Z</time>
      </trkpt>
      <trkpt lat="43.52109" lon="6.30458">
        <ele>302.4</ele>
        <time>2016-12-11T09:14:35Z</time>
      </trkpt>
      <trkpt lat="43.52111" lon="6.30472">
        <ele>303.3</ele>
        <time>2016-12-11T09:14:44Z</time>
      </trkpt>
      <trkpt lat="43.52113" lon="6.30484">
        <ele>304.1</ele>
        <time>2016-12-11T09:14:53Z</time>
      </trkpt>
      <trkpt lat="43.52118" lon="6.30495">
        <ele>304.9</ele>
        <time>2016-12-11T09:15:02Z</time>
      </trkpt>
      <trkpt lat="43.52123" lon="6.30507">
        <ele>305.8</ele>
        <time>2016-12-11T09:15:11Z</time>
      </trkpt>
      <trkpt lat="43.52128" lon="6.30518">
        <ele>306.8</ele>
        <time>2016-12-11T09:15:20Z</time>
      </trkpt>
      <trkpt lat="43.52134" lon="6.30528">
        <ele>307.5</ele>
        <time>2016-12-11T09:15:28Z</time>
      </trkpt>
      <trkpt lat="43.52141" lon="6.30536">
        <ele>308.5</ele>
        <time>2016-12-11T09:15:36Z</time>
      </trkpt>
      <trkpt lat="43.52149" lon="6.30544">
        <ele>309.4</ele>
        <time>2016-12-11T09:15:46Z</time>
      </trkpt>
      <trkpt lat="43.52154" lon="6.30555">
        <ele>310.1</ele>
        <time>2016-12-11T09:15:57Z</time>
      </trkpt>
      <trkpt lat="43.52157" lon="6.30567">
        <ele>310.5</ele>
        <time>2016-12-11T09:16:06Z</time>
      </trkpt>
      <trkpt lat="43.52164" lon="6.30576">
        <ele>310.9</ele>
        <time>2016-12-11T09:16:15Z</time>
      </trkpt>
      <trkpt lat="43.52171" lon="6.30586">
        <ele>311.1</ele>
        <time>2016-12-11T09:16:25Z</time>
      </trkpt>
      <trkpt lat="43.52179" lon="6.30594">
        <ele>311.4</ele>
        <time>2016-12-11T09:16:34Z</time>
      </trkpt>
      <trkpt lat="43.52186" lon="6.30604">
        <ele>312</ele>
        <time>2016-12-11T09:16:44Z</time>
      </trkpt>
      <trkpt lat="43.52193" lon="6.30613">
        <ele>313.3</ele>
        <time>2016-12-11T09:16:56Z</time>
      </trkpt>
      <trkpt lat="43.52203" lon="6.30614">
        <ele>314.1</ele>
        <time>2016-12-11T09:17:05Z</time>
      </trkpt>
      <trkpt lat="43.5221" lon="6.30623">
        <ele>314.9</ele>
        <time>2016-12-11T09:17:16Z</time>
      </trkpt>
      <trkpt lat="43.52216" lon="6.30633">
        <ele>315.4</ele>
        <time>2016-12-11T09:17:25Z</time>
      </trkpt>
      <trkpt lat="43.52221" lon="6.30644">
        <ele>316.3</ele>
        <time>2016-12-11T09:17:34Z</time>
      </trkpt>
      <trkpt lat="43.52231" lon="6.30647">
        <ele>317.3</ele>
        <time>2016-12-11T09:17:44Z</time>
      </trkpt>
      <trkpt lat="43.52237" lon="6.30657">
        <ele>318</ele>
        <time>2016-12-11T09:17:53Z</time>
      </trkpt>
      <trkpt lat="43.52246" lon="6.30662">
        <ele>319.2</ele>
        <time>2016-12-11T09:18:04Z</time>
      </trkpt>
      <trkpt lat="43.52254" lon="6.3067">
        <ele>320</ele>
        <time>2016-12-11T09:18:16Z</time>
      </trkpt>
      <trkpt lat="43.5226" lon="6.30679">
        <ele>320.7</ele>
        <time>2016-12-11T09:18:29Z</time>
      </trkpt>
      <trkpt lat="43.52266" lon="6.3069">
        <ele>321.4</ele>
        <time>2016-12-11T09:18:37Z</time>
      </trkpt>
      <trkpt lat="43.52273" lon="6.30699">
        <ele>322.4</ele>
        <time>2016-12-11T09:18:47Z</time>
      </trkpt>
      <trkpt lat="43.52278" lon="6.3071">
        <ele>323.7</ele>
        <time>2016-12-11T09:19:01Z</time>
      </trkpt>
      <trkpt lat="43.5228" lon="6.30722">
        <ele>324.5</ele>
        <time>2016-12-11T09:19:11Z</time>
      </trkpt>
      <trkpt lat="43.52282" lon="6.30735">
        <ele>325.5</ele>
        <time>2016-12-11T09:19:23Z</time>
      </trkpt>
      <trkpt lat="43.52283" lon="6.30748">
        <ele>326.6</ele>
        <time>2016-12-11T09:19:36Z</time>
      </trkpt>
      <trkpt lat="43.52286" lon="6.3076">
        <ele>327.7</ele>
        <time>2016-12-11T09:19:44Z</time>
      </trkpt>
      <trkpt lat="43.52285" lon="6.30773">
        <ele>329.3</ele>
        <time>2016-12-11T09:19:57Z</time>
      </trkpt>
      <trkpt lat="43.52287" lon="6.30785">
        <ele>330.4</ele>
        <time>2016-12-11T09:20:09Z</time>
      </trkpt>
      <trkpt lat="43.52286" lon="6.30798">
        <ele>332</ele>
        <time>2016-12-11T09:21:50Z</time>
      </trkpt>
      <trkpt lat="43.52295" lon="6.30796">
        <ele>332.4</ele>
        <time>2016-12-11T09:22:19Z</time>
      </trkpt>
      <trkpt lat="43.52294" lon="6.30808">
        <ele>333.6</ele>
        <time>2016-12-11T09:23:52Z</time>
      </trkpt>
      <trkpt lat="43.5229" lon="6.30797">
        <ele>333.6</ele>
        <time>2016-12-11T09:24:22Z</time>
      </trkpt>
      <trkpt lat="43.52282" lon="6.3079">
        <ele>333.9</ele>
        <time>2016-12-11T09:25:41Z</time>
      </trkpt>
      <trkpt lat="43.52287" lon="6.308">
        <ele>334.2</ele>
        <time>2016-12-11T09:25:59Z</time>
      </trkpt>
      <trkpt lat="43.52297" lon="6.30802">
        <ele>334.5</ele>
        <time>2016-12-11T09:29:18Z</time>
      </trkpt>
      <trkpt lat="43.52303" lon="6.30793">
        <ele>334.6</ele>
        <time>2016-12-11T09:29:28Z</time>
      </trkpt>
      <trkpt lat="43.52307" lon="6.30781">
        <ele>334.8</ele>
        <time>2016-12-11T09:29:36Z</time>
      </trkpt>
      <trkpt lat="43.52312" lon="6.30769">
        <ele>334.9</ele>
        <time>2016-12-11T09:29:45Z</time>
      </trkpt>
      <trkpt lat="43.52316" lon="6.30757">
        <ele>335.1</ele>
        <time>2016-12-11T09:29:56Z</time>
      </trkpt>
      <trkpt lat="43.5232" lon="6.30746">
        <ele>335.3</ele>
        <time>2016-12-11T09:30:07Z</time>
      </trkpt>
      <trkpt lat="43.52325" lon="6.30735">
        <ele>335.6</ele>
        <time>2016-12-11T09:30:14Z</time>
      </trkpt>
      <trkpt lat="43.5233" lon="6.30723">
        <ele>335.8</ele>
        <time>2016-12-11T09:30:22Z</time>
      </trkpt>
      <trkpt lat="43.52335" lon="6.30711">
        <ele>335.9</ele>
        <time>2016-12-11T09:30:31Z</time>
      </trkpt>
      <trkpt lat="43.52338" lon="6.30699">
        <ele>336</ele>
        <time>2016-12-11T09:30:40Z</time>
      </trkpt>
      <trkpt lat="43.5234" lon="6.30687">
        <ele>336</ele>
        <time>2016-12-11T09:30:47Z</time>
      </trkpt>
      <trkpt lat="43.52341" lon="6.30673">
        <ele>336</ele>
        <time>2016-12-11T09:30:56Z</time>
      </trkpt>
      <trkpt lat="43.52343" lon="6.30659">
        <ele>336</ele>
        <time>2016-12-11T09:31:08Z</time>
      </trkpt>
      <trkpt lat="43.52346" lon="6.30646">
        <ele>335.9</ele>
        <time>2016-12-11T09:31:15Z</time>
      </trkpt>
      <trkpt lat="43.52348" lon="6.30634">
        <ele>335.7</ele>
        <time>2016-12-11T09:31:24Z</time>
      </trkpt>
      <trkpt lat="43.52352" lon="6.30621">
        <ele>335</ele>
        <time>2016-12-11T09:31:34Z</time>
      </trkpt>
      <trkpt lat="43.52356" lon="6.3061">
        <ele>334</ele>
        <time>2016-12-11T09:31:44Z</time>
      </trkpt>
      <trkpt lat="43.52363" lon="6.306">
        <ele>332.4</ele>
        <time>2016-12-11T09:31:59Z</time>
      </trkpt>
      <trkpt lat="43.52371" lon="6.30593">
        <ele>331.6</ele>
        <time>2016-12-11T09:32:08Z</time>
      </trkpt>
      <trkpt lat="43.52379" lon="6.30587">
        <ele>330.8</ele>
        <time>2016-12-11T09:32:17Z</time>
      </trkpt>
      <trkpt lat="43.52386" lon="6.30578">
        <ele>330.2</ele>
        <time>2016-12-11T09:32:25Z</time>
      </trkpt>
      <trkpt lat="43.52393" lon="6.30568">
        <ele>329.8</ele>
        <time>2016-12-11T09:32:34Z</time>
      </trkpt>
      <trkpt lat="43.52398" lon="6.30558">
        <ele>329.4</ele>
        <time>2016-12-11T09:32:43Z</time>
      </trkpt>
      <trkpt lat="43.52402" lon="6.30547">
        <ele>329</ele>
        <time>2016-12-11T09:32:49Z</time>
      </trkpt>
      <trkpt lat="43.52398" lon="6.30534">
        <ele>328.3</ele>
        <time>2016-12-11T09:33:01Z</time>
      </trkpt>
      <trkpt lat="43.52393" lon="6.30524">
        <ele>327.9</ele>
        <time>2016-12-11T09:33:10Z</time>
      </trkpt>
      <trkpt lat="43.52388" lon="6.30512">
        <ele>327.3</ele>
        <time>2016-12-11T09:33:23Z</time>
      </trkpt>
      <trkpt lat="43.52388" lon="6.30498">
        <ele>327</ele>
        <time>2016-12-11T09:33:33Z</time>
      </trkpt>
      <trkpt lat="43.52385" lon="6.30486">
        <ele>326.8</ele>
        <time>2016-12-11T09:33:44Z</time>
      </trkpt>
      <trkpt lat="43.52387" lon="6.30473">
        <ele>326.7</ele>
        <time>2016-12-11T09:33:53Z</time>
      </trkpt>
      <trkpt lat="43.52389" lon="6.30461">
        <ele>327</ele>
        <time>2016-12-11T09:34:04Z</time>
      </trkpt>
      <trkpt lat="43.52392" lon="6.30448">
        <ele>327.8</ele>
        <time>2016-12-11T09:34:21Z</time>
      </trkpt>
      <trkpt lat="43.52398" lon="6.30438">
        <ele>328.7</ele>
        <time>2016-12-11T09:34:31Z</time>
      </trkpt>
      <trkpt lat="43.52405" lon="6.30429">
        <ele>330</ele>
        <time>2016-12-11T09:34:40Z</time>
      </trkpt>
      <trkpt lat="43.52413" lon="6.30422">
        <ele>331.6</ele>
        <time>2016-12-11T09:34:54Z</time>
      </trkpt>
      <trkpt lat="43.5242" lon="6.30413">
        <ele>333.5</ele>
        <time>2016-12-11T09:35:09Z</time>
      </trkpt>
      <trkpt lat="43.52424" lon="6.30402">
        <ele>335.4</ele>
        <time>2016-12-11T09:35:22Z</time>
      </trkpt>
      <trkpt lat="43.52427" lon="6.30389">
        <ele>337.8</ele>
        <time>2016-12-11T09:35:37Z</time>
      </trkpt>
      <trkpt lat="43.52432" lon="6.30378">
        <ele>339.2</ele>
        <time>2016-12-11T09:35:47Z</time>
      </trkpt>
      <trkpt lat="43.52438" lon="6.30367">
        <ele>340.9</ele>
        <time>2016-12-11T09:35:59Z</time>
      </trkpt>
      <trkpt lat="43.52445" lon="6.30358">
        <ele>342.3</ele>
        <time>2016-12-11T09:36:09Z</time>
      </trkpt>
      <trkpt lat="43.52452" lon="6.3035">
        <ele>343.2</ele>
        <time>2016-12-11T09:36:17Z</time>
      </trkpt>
      <trkpt lat="43.52459" lon="6.3034">
        <ele>343.9</ele>
        <time>2016-12-11T09:36:29Z</time>
      </trkpt>
      <trkpt lat="43.52465" lon="6.3033">
        <ele>343.6</ele>
        <time>2016-12-11T09:36:38Z</time>
      </trkpt>
      <trkpt lat="43.52472" lon="6.30321">
        <ele>343.1</ele>
        <time>2016-12-11T09:36:46Z</time>
      </trkpt>
      <trkpt lat="43.52477" lon="6.3031">
        <ele>341.6</ele>
        <time>2016-12-11T09:37:00Z</time>
      </trkpt>
      <trkpt lat="43.52482" lon="6.30299">
        <ele>340</ele>
        <time>2016-12-11T09:37:13Z</time>
      </trkpt>
      <trkpt lat="43.52489" lon="6.3029">
        <ele>338</ele>
        <time>2016-12-11T09:37:26Z</time>
      </trkpt>
      <trkpt lat="43.52497" lon="6.30282">
        <ele>336.6</ele>
        <time>2016-12-11T09:37:36Z</time>
      </trkpt>
      <trkpt lat="43.52504" lon="6.30272">
        <ele>334.9</ele>
        <time>2016-12-11T09:37:48Z</time>
      </trkpt>
      <trkpt lat="43.52511" lon="6.30263">
        <ele>333.8</ele>
        <time>2016-12-11T09:37:57Z</time>
      </trkpt>
      <trkpt lat="43.52519" lon="6.30255">
        <ele>333.2</ele>
        <time>2016-12-11T09:38:05Z</time>
      </trkpt>
      <trkpt lat="43.52528" lon="6.30259">
        <ele>332.3</ele>
        <time>2016-12-11T09:38:19Z</time>
      </trkpt>
      <trkpt lat="43.52537" lon="6.30262">
        <ele>332.2</ele>
        <time>2016-12-11T09:38:34Z</time>
      </trkpt>
      <trkpt lat="43.52547" lon="6.30263">
        <ele>332.7</ele>
        <time>2016-12-11T09:38:46Z</time>
      </trkpt>
      <trkpt lat="43.52552" lon="6.30253">
        <ele>332.9</ele>
        <time>2016-12-11T09:38:55Z</time>
      </trkpt>
      <trkpt lat="43.52553" lon="6.3024">
        <ele>333</ele>
        <time>2016-12-11T09:39:04Z</time>
      </trkpt>
      <trkpt lat="43.5255" lon="6.30227">
        <ele>333.1</ele>
        <time>2016-12-11T09:39:12Z</time>
      </trkpt>
      <trkpt lat="43.52548" lon="6.30215">
        <ele>333.1</ele>
        <time>2016-12-11T09:39:20Z</time>
      </trkpt>
      <trkpt lat="43.52543" lon="6.30203">
        <ele>333.1</ele>
        <time>2016-12-11T09:39:31Z</time>
      </trkpt>
      <trkpt lat="43.5254" lon="6.3019">
        <ele>332.5</ele>
        <time>2016-12-11T09:39:39Z</time>
      </trkpt>
      <trkpt lat="43.52534" lon="6.30179">
        <ele>332</ele>
        <time>2016-12-11T09:39:48Z</time>
      </trkpt>
      <trkpt lat="43.52533" lon="6.30165">
        <ele>331.4</ele>
        <time>2016-12-11T09:39:58Z</time>
      </trkpt>
      <trkpt lat="43.52532" lon="6.30152">
        <ele>331</ele>
        <time>2016-12-11T09:40:09Z</time>
      </trkpt>
      <trkpt lat="43.52533" lon="6.30139">
        <ele>330.9</ele>
        <time>2016-12-11T09:40:19Z</time>
      </trkpt>
      <trkpt lat="43.52535" lon="6.30126">
        <ele>331.4</ele>
        <time>2016-12-11T09:40:27Z</time>
      </trkpt>
      <trkpt lat="43.52533" lon="6.30113">
        <ele>331.9</ele>
        <time>2016-12-11T09:40:34Z</time>
      </trkpt>
      <trkpt lat="43.5253" lon="6.301">
        <ele>332.3</ele>
        <time>2016-12-11T09:40:45Z</time>
      </trkpt>
      <trkpt lat="43.52524" lon="6.30091">
        <ele>331.7</ele>
        <time>2016-12-11T09:40:55Z</time>
      </trkpt>
      <trkpt lat="43.52519" lon="6.30079">
        <ele>330.8</ele>
        <time>2016-12-11T09:41:04Z</time>
      </trkpt>
      <trkpt lat="43.52517" lon="6.30067">
        <ele>330</ele>
        <time>2016-12-11T09:41:12Z</time>
      </trkpt>
      <trkpt lat="43.52517" lon="6.30054">
        <ele>328.9</ele>
        <time>2016-12-11T09:41:21Z</time>
      </trkpt>
      <trkpt lat="43.52516" lon="6.30041">
        <ele>327.5</ele>
        <time>2016-12-11T09:41:31Z</time>
      </trkpt>
      <trkpt lat="43.52517" lon="6.30027">
        <ele>325.4</ele>
        <time>2016-12-11T09:41:44Z</time>
      </trkpt>
      <trkpt lat="43.52524" lon="6.30019">
        <ele>324.6</ele>
        <time>2016-12-11T09:41:53Z</time>
      </trkpt>
      <trkpt lat="43.5253" lon="6.30008">
        <ele>324.1</ele>
        <time>2016-12-11T09:42:00Z</time>
      </trkpt>
      <trkpt lat="43.52537" lon="6.3">
        <ele>323.8</ele>
        <time>2016-12-11T09:42:10Z</time>
      </trkpt>
      <trkpt lat="43.52547" lon="6.29995">
        <ele>323.5</ele>
        <time>2016-12-11T09:42:22Z</time>
      </trkpt>
      <trkpt lat="43.52556" lon="6.29989">
        <ele>323.5</ele>
        <time>2016-12-11T09:42:30Z</time>
      </trkpt>
      <trkpt lat="43.52563" lon="6.29979">
        <ele>323.6</ele>
        <time>2016-12-11T09:42:39Z</time>
      </trkpt>
      <trkpt lat="43.52572" lon="6.29975">
        <ele>323.7</ele>
        <time>2016-12-11T09:42:48Z</time>
      </trkpt>
      <trkpt lat="43.52581" lon="6.29972">
        <ele>323.4</ele>
        <time>2016-12-11T09:43:00Z</time>
      </trkpt>
      <trkpt lat="43.52591" lon="6.29975">
        <ele>323.6</ele>
        <time>2016-12-11T09:43:10Z</time>
      </trkpt>
      <trkpt lat="43.526" lon="6.29979">
        <ele>324.3</ele>
        <time>2016-12-11T09:43:20Z</time>
      </trkpt>
      <trkpt lat="43.52609" lon="6.2998">
        <ele>325.3</ele>
        <time>2016-12-11T09:43:32Z</time>
      </trkpt>
      <trkpt lat="43.52619" lon="6.29981">
        <ele>326</ele>
        <time>2016-12-11T09:43:42Z</time>
      </trkpt>
      <trkpt lat="43.52629" lon="6.29983">
        <ele>326.7</ele>
        <time>2016-12-11T09:43:52Z</time>
      </trkpt>
      <trkpt lat="43.52638" lon="6.29985">
        <ele>327.8</ele>
        <time>2016-12-11T09:44:02Z</time>
      </trkpt>
      <trkpt lat="43.52647" lon="6.29987">
        <ele>329.1</ele>
        <time>2016-12-11T09:44:17Z</time>
      </trkpt>
      <trkpt lat="43.52657" lon="6.29989">
        <ele>329.8</ele>
        <time>2016-12-11T09:44:28Z</time>
      </trkpt>
      <trkpt lat="43.52665" lon="6.29982">
        <ele>331</ele>
        <time>2016-12-11T09:44:58Z</time>
      </trkpt>
      <trkpt lat="43.52673" lon="6.29988">
        <ele>331.3</ele>
        <time>2016-12-11T09:45:10Z</time>
      </trkpt>
      <trkpt lat="43.52682" lon="6.2999">
        <ele>331.7</ele>
        <time>2016-12-11T09:45:22Z</time>
      </trkpt>
      <trkpt lat="43.52691" lon="6.29996">
        <ele>332.3</ele>
        <time>2016-12-11T09:45:32Z</time>
      </trkpt>
      <trkpt lat="43.52699" lon="6.30001">
        <ele>333</ele>
        <time>2016-12-11T09:45:41Z</time>
      </trkpt>
      <trkpt lat="43.52708" lon="6.30007">
        <ele>333.8</ele>
        <time>2016-12-11T09:45:49Z</time>
      </trkpt>
      <trkpt lat="43.52717" lon="6.30014">
        <ele>334.7</ele>
        <time>2016-12-11T09:45:58Z</time>
      </trkpt>
      <trkpt lat="43.52726" lon="6.30021">
        <ele>335</ele>
        <time>2016-12-11T09:46:04Z</time>
      </trkpt>
      <trkpt lat="43.52736" lon="6.30026">
        <ele>335.6</ele>
        <time>2016-12-11T09:46:13Z</time>
      </trkpt>
      <trkpt lat="43.52745" lon="6.30028">
        <ele>336.2</ele>
        <time>2016-12-11T09:46:22Z</time>
      </trkpt>
      <trkpt lat="43.52753" lon="6.30033">
        <ele>336.6</ele>
        <time>2016-12-11T09:46:33Z</time>
      </trkpt>
      <trkpt lat="43.52761" lon="6.3004">
        <ele>336.9</ele>
        <time>2016-12-11T09:46:42Z</time>
      </trkpt>
      <trkpt lat="43.52767" lon="6.3005">
        <ele>337.2</ele>
        <time>2016-12-11T09:46:49Z</time>
      </trkpt>
      <trkpt lat="43.52772" lon="6.30061">
        <ele>337.6</ele>
        <time>2016-12-11T09:46:58Z</time>
      </trkpt>
      <trkpt lat="43.52777" lon="6.30072">
        <ele>337.6</ele>
        <time>2016-12-11T09:47:09Z</time>
      </trkpt>
      <trkpt lat="43.52782" lon="6.30083">
        <ele>337.6</ele>
        <time>2016-12-11T09:47:17Z</time>
      </trkpt>
      <trkpt lat="43.52787" lon="6.30094">
        <ele>337.5</ele>
        <time>2016-12-11T09:47:27Z</time>
      </trkpt>
      <trkpt lat="43.52794" lon="6.30102">
        <ele>337.4</ele>
        <time>2016-12-11T09:47:45Z</time>
      </trkpt>
      <trkpt lat="43.52801" lon="6.30112">
        <ele>338.3</ele>
        <time>2016-12-11T09:48:11Z</time>
      </trkpt>
      <trkpt lat="43.52799" lon="6.30099">
        <ele>338.8</ele>
        <time>2016-12-11T09:48:29Z</time>
      </trkpt>
      <trkpt lat="43.52808" lon="6.30104">
        <ele>337.2</ele>
        <time>2016-12-11T09:49:43Z</time>
      </trkpt>
      <trkpt lat="43.52817" lon="6.30107">
        <ele>337.1</ele>
        <time>2016-12-11T09:51:26Z</time>
      </trkpt>
      <trkpt lat="43.52827" lon="6.30111">
        <ele>337.9</ele>
        <time>2016-12-11T09:51:37Z</time>
      </trkpt>
      <trkpt lat="43.52836" lon="6.30112">
        <ele>338.9</ele>
        <time>2016-12-11T09:51:49Z</time>
      </trkpt>
      <trkpt lat="43.52845" lon="6.30118">
        <ele>339.6</ele>
        <time>2016-12-11T09:51:58Z</time>
      </trkpt>
      <trkpt lat="43.52853" lon="6.30124">
        <ele>340.4</ele>
        <time>2016-12-11T09:52:11Z</time>
      </trkpt>
      <trkpt lat="43.5286" lon="6.30132">
        <ele>341</ele>
        <time>2016-12-11T09:52:22Z</time>
      </trkpt>
      <trkpt lat="43.52868" lon="6.3014">
        <ele>341.7</ele>
        <time>2016-12-11T09:52:32Z</time>
      </trkpt>
      <trkpt lat="43.52877" lon="6.30146">
        <ele>342.4</ele>
        <time>2016-12-11T09:52:43Z</time>
      </trkpt>
      <trkpt lat="43.52886" lon="6.3015">
        <ele>343.3</ele>
        <time>2016-12-11T09:52:53Z</time>
      </trkpt>
      <trkpt lat="43.52895" lon="6.30149">
        <ele>344.2</ele>
        <time>2016-12-11T09:53:13Z</time>
      </trkpt>
      <trkpt lat="43.52903" lon="6.30155">
        <ele>344.6</ele>
        <time>2016-12-11T09:53:23Z</time>
      </trkpt>
      <trkpt lat="43.52911" lon="6.30163">
        <ele>345.1</ele>
        <time>2016-12-11T09:53:33Z</time>
      </trkpt>
      <trkpt lat="43.52918" lon="6.3017">
        <ele>345.6</ele>
        <time>2016-12-11T09:53:43Z</time>
      </trkpt>
      <trkpt lat="43.52925" lon="6.30179">
        <ele>346.6</ele>
        <time>2016-12-11T09:53:53Z</time>
      </trkpt>
      <trkpt lat="43.52931" lon="6.3019">
        <ele>347.3</ele>
        <time>2016-12-11T09:54:03Z</time>
      </trkpt>
      <trkpt lat="43.52933" lon="6.30202">
        <ele>348.5</ele>
        <time>2016-12-11T09:54:15Z</time>
      </trkpt>
      <trkpt lat="43.52935" lon="6.30216">
        <ele>349.8</ele>
        <time>2016-12-11T09:54:28Z</time>
      </trkpt>
      <trkpt lat="43.52936" lon="6.30229">
        <ele>350.6</ele>
        <time>2016-12-11T09:54:36Z</time>
      </trkpt>
      <trkpt lat="43.52939" lon="6.30242">
        <ele>351.3</ele>
        <time>2016-12-11T09:54:44Z</time>
      </trkpt>
      <trkpt lat="43.52945" lon="6.30253">
        <ele>351.5</ele>
        <time>2016-12-11T09:54:53Z</time>
      </trkpt>
      <trkpt lat="43.52952" lon="6.30262">
        <ele>351.5</ele>
        <time>2016-12-11T09:55:01Z</time>
      </trkpt>
      <trkpt lat="43.52962" lon="6.30262">
        <ele>351.5</ele>
        <time>2016-12-11T09:55:09Z</time>
      </trkpt>
      <trkpt lat="43.52971" lon="6.3026">
        <ele>351.4</ele>
        <time>2016-12-11T09:55:17Z</time>
      </trkpt>
      <trkpt lat="43.52981" lon="6.30255">
        <ele>351.3</ele>
        <time>2016-12-11T09:55:24Z</time>
      </trkpt>
      <trkpt lat="43.52989" lon="6.30249">
        <ele>351.4</ele>
        <time>2016-12-11T09:55:33Z</time>
      </trkpt>
      <trkpt lat="43.52998" lon="6.30249">
        <ele>351.6</ele>
        <time>2016-12-11T09:55:42Z</time>
      </trkpt>
      <trkpt lat="43.53007" lon="6.30251">
        <ele>351.7</ele>
        <time>2016-12-11T09:55:53Z</time>
      </trkpt>
      <trkpt lat="43.53015" lon="6.30257">
        <ele>352.2</ele>
        <time>2016-12-11T09:56:03Z</time>
      </trkpt>
      <trkpt lat="43.53024" lon="6.3026">
        <ele>354.4</ele>
        <time>2016-12-11T09:57:14Z</time>
      </trkpt>
      <trkpt lat="43.53029" lon="6.3027">
        <ele>355</ele>
        <time>2016-12-11T09:58:10Z</time>
      </trkpt>
      <trkpt lat="43.53032" lon="6.30282">
        <ele>356.1</ele>
        <time>2016-12-11T09:58:30Z</time>
      </trkpt>
      <trkpt lat="43.5303" lon="6.30294">
        <ele>356.6</ele>
        <time>2016-12-11T09:58:41Z</time>
      </trkpt>
      <trkpt lat="43.53027" lon="6.30306">
        <ele>357.7</ele>
        <time>2016-12-11T09:58:53Z</time>
      </trkpt>
      <trkpt lat="43.53025" lon="6.30319">
        <ele>358.7</ele>
        <time>2016-12-11T09:59:04Z</time>
      </trkpt>
      <trkpt lat="43.53022" lon="6.30332">
        <ele>359.8</ele>
        <time>2016-12-11T09:59:14Z</time>
      </trkpt>
      <trkpt lat="43.53018" lon="6.30344">
        <ele>360.8</ele>
        <time>2016-12-11T09:59:23Z</time>
      </trkpt>
      <trkpt lat="43.53014" lon="6.30355">
        <ele>361.6</ele>
        <time>2016-12-11T09:59:32Z</time>
      </trkpt>
      <trkpt lat="43.53009" lon="6.30367">
        <ele>362.5</ele>
        <time>2016-12-11T09:59:42Z</time>
      </trkpt>
      <trkpt lat="43.53008" lon="6.30381">
        <ele>363.2</ele>
        <time>2016-12-11T09:59:50Z</time>
      </trkpt>
      <trkpt lat="43.53011" lon="6.30394">
        <ele>363.7</ele>
        <time>2016-12-11T09:59:57Z</time>
      </trkpt>
      <trkpt lat="43.53011" lon="6.30407">
        <ele>364.3</ele>
        <time>2016-12-11T10:00:07Z</time>
      </trkpt>
      <trkpt lat="43.53011" lon="6.3042">
        <ele>364.9</ele>
        <time>2016-12-11T10:00:16Z</time>
      </trkpt>
      <trkpt lat="43.53006" lon="6.30431">
        <ele>365.9</ele>
        <time>2016-12-11T10:00:25Z</time>
      </trkpt>
      <trkpt lat="43.53001" lon="6.30442">
        <ele>366.8</ele>
        <time>2016-12-11T10:00:34Z</time>
      </trkpt>
      <trkpt lat="43.52993" lon="6.30449">
        <ele>367.7</ele>
        <time>2016-12-11T10:00:44Z</time>
      </trkpt>
      <trkpt lat="43.52984" lon="6.30446">
        <ele>368.3</ele>
        <time>2016-12-11T10:00:54Z</time>
      </trkpt>
      <trkpt lat="43.52979" lon="6.30436">
        <ele>368.9</ele>
        <time>2016-12-11T10:01:02Z</time>
      </trkpt>
      <trkpt lat="43.52974" lon="6.30424">
        <ele>369</ele>
        <time>2016-12-11T10:01:11Z</time>
      </trkpt>
      <trkpt lat="43.52969" lon="6.30414">
        <ele>368.7</ele>
        <time>2016-12-11T10:01:22Z</time>
      </trkpt>
      <trkpt lat="43.52959" lon="6.30408">
        <ele>367.8</ele>
        <time>2016-12-11T10:01:32Z</time>
      </trkpt>
      <trkpt lat="43.5295" lon="6.30408">
        <ele>366.7</ele>
        <time>2016-12-11T10:01:40Z</time>
      </trkpt>
      <trkpt lat="43.52941" lon="6.30404">
        <ele>365.9</ele>
        <time>2016-12-11T10:01:48Z</time>
      </trkpt>
      <trkpt lat="43.52934" lon="6.30394">
        <ele>365.3</ele>
        <time>2016-12-11T10:01:56Z</time>
      </trkpt>
      <trkpt lat="43.52927" lon="6.30385">
        <ele>364.7</ele>
        <time>2016-12-11T10:02:06Z</time>
      </trkpt>
      <trkpt lat="43.52919" lon="6.30378">
        <ele>363.4</ele>
        <time>2016-12-11T10:02:24Z</time>
      </trkpt>
      <trkpt lat="43.52911" lon="6.30373">
        <ele>362.8</ele>
        <time>2016-12-11T10:02:34Z</time>
      </trkpt>
      <trkpt lat="43.52902" lon="6.3037">
        <ele>362.4</ele>
        <time>2016-12-11T10:02:44Z</time>
      </trkpt>
      <trkpt lat="43.52892" lon="6.30366">
        <ele>361.8</ele>
        <time>2016-12-11T10:02:54Z</time>
      </trkpt>
      <trkpt lat="43.52882" lon="6.30362">
        <ele>361.4</ele>
        <time>2016-12-11T10:03:02Z</time>
      </trkpt>
      <trkpt lat="43.52873" lon="6.30362">
        <ele>361.4</ele>
        <time>2016-12-11T10:03:11Z</time>
      </trkpt>
      <trkpt lat="43.52864" lon="6.30363">
        <ele>361.7</ele>
        <time>2016-12-11T10:03:18Z</time>
      </trkpt>
      <trkpt lat="43.52855" lon="6.30363">
        <ele>362.1</ele>
        <time>2016-12-11T10:03:26Z</time>
      </trkpt>
      <trkpt lat="43.52846" lon="6.30366">
        <ele>362.6</ele>
        <time>2016-12-11T10:03:35Z</time>
      </trkpt>
      <trkpt lat="43.52838" lon="6.30371">
        <ele>363.2</ele>
        <time>2016-12-11T10:03:43Z</time>
      </trkpt>
      <trkpt lat="43.52831" lon="6.3038">
        <ele>363.7</ele>
        <time>2016-12-11T10:03:51Z</time>
      </trkpt>
      <trkpt lat="43.52825" lon="6.3039">
        <ele>364.2</ele>
        <time>2016-12-11T10:03:58Z</time>
      </trkpt>
      <trkpt lat="43.52823" lon="6.30403">
        <ele>364.6</ele>
        <time>2016-12-11T10:04:05Z</time>
      </trkpt>
      <trkpt lat="43.52818" lon="6.30416">
        <ele>364.8</ele>
        <time>2016-12-11T10:04:13Z</time>
      </trkpt>
      <trkpt lat="43.52811" lon="6.30424">
        <ele>365.2</ele>
        <time>2016-12-11T10:04:21Z</time>
      </trkpt>
      <trkpt lat="43.52804" lon="6.30432">
        <ele>365.5</ele>
        <time>2016-12-11T10:04:29Z</time>
      </trkpt>
      <trkpt lat="43.528" lon="6.30443">
        <ele>365.7</ele>
        <time>2016-12-11T10:04:37Z</time>
      </trkpt>
      <trkpt lat="43.52794" lon="6.30454">
        <ele>365.7</ele>
        <time>2016-12-11T10:04:45Z</time>
      </trkpt>
      <trkpt lat="43.5279" lon="6.30465">
        <ele>365.7</ele>
        <time>2016-12-11T10:04:54Z</time>
      </trkpt>
      <trkpt lat="43.52785" lon="6.30477">
        <ele>365.6</ele>
        <time>2016-12-11T10:05:06Z</time>
      </trkpt>
      <trkpt lat="43.52779" lon="6.30487">
        <ele>365.4</ele>
        <time>2016-12-11T10:05:16Z</time>
      </trkpt>
      <trkpt lat="43.52771" lon="6.30494">
        <ele>365</ele>
        <time>2016-12-11T10:05:24Z</time>
      </trkpt>
      <trkpt lat="43.52763" lon="6.30501">
        <ele>363.8</ele>
        <time>2016-12-11T10:05:38Z</time>
      </trkpt>
      <trkpt lat="43.52755" lon="6.30508">
        <ele>362.8</ele>
        <time>2016-12-11T10:05:46Z</time>
      </trkpt>
      <trkpt lat="43.52747" lon="6.30514">
        <ele>361.9</ele>
        <time>2016-12-11T10:05:55Z</time>
      </trkpt>
      <trkpt lat="43.52738" lon="6.30519">
        <ele>361.2</ele>
        <time>2016-12-11T10:06:05Z</time>
      </trkpt>
      <trkpt lat="43.52729" lon="6.30519">
        <ele>360.9</ele>
        <time>2016-12-11T10:06:14Z</time>
      </trkpt>
      <trkpt lat="43.5272" lon="6.30521">
        <ele>360.7</ele>
        <time>2016-12-11T10:06:26Z</time>
      </trkpt>
      <trkpt lat="43.52712" lon="6.30528">
        <ele>360.6</ele>
        <time>2016-12-11T10:06:43Z</time>
      </trkpt>
      <trkpt lat="43.52716" lon="6.30541">
        <ele>361</ele>
        <time>2016-12-11T10:06:53Z</time>
      </trkpt>
      <trkpt lat="43.52723" lon="6.30551">
        <ele>361.8</ele>
        <time>2016-12-11T10:07:05Z</time>
      </trkpt>
      <trkpt lat="43.52728" lon="6.30561">
        <ele>362.3</ele>
        <time>2016-12-11T10:07:14Z</time>
      </trkpt>
      <trkpt lat="43.52736" lon="6.30568">
        <ele>363.1</ele>
        <time>2016-12-11T10:07:25Z</time>
      </trkpt>
      <trkpt lat="43.52745" lon="6.3057">
        <ele>364.5</ele>
        <time>2016-12-11T10:07:38Z</time>
      </trkpt>
      <trkpt lat="43.52753" lon="6.30577">
        <ele>366.1</ele>
        <time>2016-12-11T10:07:52Z</time>
      </trkpt>
      <trkpt lat="43.52752" lon="6.3059">
        <ele>367.4</ele>
        <time>2016-12-11T10:08:05Z</time>
      </trkpt>
      <trkpt lat="43.52755" lon="6.30602">
        <ele>368</ele>
        <time>2016-12-11T10:08:13Z</time>
      </trkpt>
      <trkpt lat="43.52759" lon="6.30613">
        <ele>368.9</ele>
        <time>2016-12-11T10:08:22Z</time>
      </trkpt>
      <trkpt lat="43.52761" lon="6.30626">
        <ele>369.8</ele>
        <time>2016-12-11T10:08:34Z</time>
      </trkpt>
      <trkpt lat="43.52761" lon="6.30639">
        <ele>370.1</ele>
        <time>2016-12-11T10:08:44Z</time>
      </trkpt>
      <trkpt lat="43.52759" lon="6.30651">
        <ele>370</ele>
        <time>2016-12-11T10:08:54Z</time>
      </trkpt>
      <trkpt lat="43.5276" lon="6.30665">
        <ele>369.5</ele>
        <time>2016-12-11T10:09:03Z</time>
      </trkpt>
      <trkpt lat="43.5276" lon="6.30677">
        <ele>369.1</ele>
        <time>2016-12-11T10:09:12Z</time>
      </trkpt>
      <trkpt lat="43.52755" lon="6.30688">
        <ele>368.7</ele>
        <time>2016-12-11T10:09:21Z</time>
      </trkpt>
      <trkpt lat="43.52752" lon="6.307">
        <ele>368.4</ele>
        <time>2016-12-11T10:09:29Z</time>
      </trkpt>
      <trkpt lat="43.52753" lon="6.30713">
        <ele>368.4</ele>
        <time>2016-12-11T10:09:41Z</time>
      </trkpt>
      <trkpt lat="43.52752" lon="6.30726">
        <ele>368.6</ele>
        <time>2016-12-11T10:09:52Z</time>
      </trkpt>
      <trkpt lat="43.52747" lon="6.30737">
        <ele>368.9</ele>
        <time>2016-12-11T10:10:02Z</time>
      </trkpt>
      <trkpt lat="43.52743" lon="6.30749">
        <ele>369.2</ele>
        <time>2016-12-11T10:10:13Z</time>
      </trkpt>
      <trkpt lat="43.52743" lon="6.30763">
        <ele>369.7</ele>
        <time>2016-12-11T10:10:22Z</time>
      </trkpt>
      <trkpt lat="43.52744" lon="6.30775">
        <ele>370.3</ele>
        <time>2016-12-11T10:10:32Z</time>
      </trkpt>
      <trkpt lat="43.52746" lon="6.30789">
        <ele>371</ele>
        <time>2016-12-11T10:10:43Z</time>
      </trkpt>
      <trkpt lat="43.52747" lon="6.30802">
        <ele>371.8</ele>
        <time>2016-12-11T10:10:52Z</time>
      </trkpt>
      <trkpt lat="43.52751" lon="6.30815">
        <ele>372.7</ele>
        <time>2016-12-11T10:11:01Z</time>
      </trkpt>
      <trkpt lat="43.52751" lon="6.30828">
        <ele>373.3</ele>
        <time>2016-12-11T10:11:09Z</time>
      </trkpt>
      <trkpt lat="43.5275" lon="6.3084">
        <ele>374.2</ele>
        <time>2016-12-11T10:11:20Z</time>
      </trkpt>
      <trkpt lat="43.52751" lon="6.30853">
        <ele>374.7</ele>
        <time>2016-12-11T10:11:31Z</time>
      </trkpt>
      <trkpt lat="43.52743" lon="6.30861">
        <ele>375.4</ele>
        <time>2016-12-11T10:11:42Z</time>
      </trkpt>
      <trkpt lat="43.52736" lon="6.30868">
        <ele>376.2</ele>
        <time>2016-12-11T10:11:59Z</time>
      </trkpt>
      <trkpt lat="43.52727" lon="6.30873">
        <ele>377.2</ele>
        <time>2016-12-11T10:12:15Z</time>
      </trkpt>
      <trkpt lat="43.52733" lon="6.30882">
        <ele>377</ele>
        <time>2016-12-11T10:17:56Z</time>
      </trkpt>
      <trkpt lat="43.52724" lon="6.30881">
        <ele>377.1</ele>
        <time>2016-12-11T10:20:18Z</time>
      </trkpt>
      <trkpt lat="43.52716" lon="6.30874">
        <ele>377.1</ele>
        <time>2016-12-11T10:20:27Z</time>
      </trkpt>
      <trkpt lat="43.52706" lon="6.30871">
        <ele>377.2</ele>
        <time>2016-12-11T10:20:35Z</time>
      </trkpt>
      <trkpt lat="43.52697" lon="6.30871">
        <ele>377.2</ele>
        <time>2016-12-11T10:20:43Z</time>
      </trkpt>
      <trkpt lat="43.52688" lon="6.30875">
        <ele>377.1</ele>
        <time>2016-12-11T10:20:51Z</time>
      </trkpt>
      <trkpt lat="43.52679" lon="6.3088">
        <ele>376.7</ele>
        <time>2016-12-11T10:21:00Z</time>
      </trkpt>
      <trkpt lat="43.5267" lon="6.30887">
        <ele>376.3</ele>
        <time>2016-12-11T10:21:06Z</time>
      </trkpt>
      <trkpt lat="43.52664" lon="6.30898">
        <ele>376</ele>
        <time>2016-12-11T10:21:14Z</time>
      </trkpt>
      <trkpt lat="43.52656" lon="6.30908">
        <ele>375.7</ele>
        <time>2016-12-11T10:21:24Z</time>
      </trkpt>
      <trkpt lat="43.52649" lon="6.30919">
        <ele>375.4</ele>
        <time>2016-12-11T10:21:32Z</time>
      </trkpt>
      <trkpt lat="43.52642" lon="6.30929">
        <ele>374.8</ele>
        <time>2016-12-11T10:21:41Z</time>
      </trkpt>
      <trkpt lat="43.52634" lon="6.30937">
        <ele>374.3</ele>
        <time>2016-12-11T10:21:49Z</time>
      </trkpt>
      <trkpt lat="43.52626" lon="6.30945">
        <ele>373.8</ele>
        <time>2016-12-11T10:21:57Z</time>
      </trkpt>
      <trkpt lat="43.52617" lon="6.30949">
        <ele>373.2</ele>
        <time>2016-12-11T10:22:06Z</time>
      </trkpt>
      <trkpt lat="43.5261" lon="6.30958">
        <ele>372.6</ele>
        <time>2016-12-11T10:22:15Z</time>
      </trkpt>
      <trkpt lat="43.52604" lon="6.30968">
        <ele>372.1</ele>
        <time>2016-12-11T10:22:23Z</time>
      </trkpt>
      <trkpt lat="43.52597" lon="6.30977">
        <ele>371.5</ele>
        <time>2016-12-11T10:22:31Z</time>
      </trkpt>
      <trkpt lat="43.5259" lon="6.30985">
        <ele>371.1</ele>
        <time>2016-12-11T10:22:38Z</time>
      </trkpt>
      <trkpt lat="43.52583" lon="6.30994">
        <ele>370.7</ele>
        <time>2016-12-11T10:22:46Z</time>
      </trkpt>
      <trkpt lat="43.52575" lon="6.31001">
        <ele>370.2</ele>
        <time>2016-12-11T10:22:55Z</time>
      </trkpt>
      <trkpt lat="43.52567" lon="6.31007">
        <ele>370</ele>
        <time>2016-12-11T10:23:03Z</time>
      </trkpt>
      <trkpt lat="43.52558" lon="6.31013">
        <ele>370.2</ele>
        <time>2016-12-11T10:23:14Z</time>
      </trkpt>
      <trkpt lat="43.52548" lon="6.31017">
        <ele>370.3</ele>
        <time>2016-12-11T10:23:23Z</time>
      </trkpt>
      <trkpt lat="43.52539" lon="6.3102">
        <ele>370.4</ele>
        <time>2016-12-11T10:23:32Z</time>
      </trkpt>
      <trkpt lat="43.5253" lon="6.31019">
        <ele>370.4</ele>
        <time>2016-12-11T10:23:41Z</time>
      </trkpt>
      <trkpt lat="43.52521" lon="6.31021">
        <ele>370.4</ele>
        <time>2016-12-11T10:23:48Z</time>
      </trkpt>
      <trkpt lat="43.52511" lon="6.31024">
        <ele>370.5</ele>
        <time>2016-12-11T10:23:56Z</time>
      </trkpt>
      <trkpt lat="43.52504" lon="6.31032">
        <ele>370.5</ele>
        <time>2016-12-11T10:24:04Z</time>
      </trkpt>
      <trkpt lat="43.52495" lon="6.31038">
        <ele>370.5</ele>
        <time>2016-12-11T10:24:13Z</time>
      </trkpt>
      <trkpt lat="43.52486" lon="6.31042">
        <ele>370.6</ele>
        <time>2016-12-11T10:24:23Z</time>
      </trkpt>
      <trkpt lat="43.52477" lon="6.31041">
        <ele>370.7</ele>
        <time>2016-12-11T10:24:32Z</time>
      </trkpt>
      <trkpt lat="43.52467" lon="6.31038">
        <ele>370.7</ele>
        <time>2016-12-11T10:24:39Z</time>
      </trkpt>
      <trkpt lat="43.52458" lon="6.31039">
        <ele>370.7</ele>
        <time>2016-12-11T10:24:56Z</time>
      </trkpt>
      <trkpt lat="43.52448" lon="6.3104">
        <ele>370.5</ele>
        <time>2016-12-11T10:25:03Z</time>
      </trkpt>
      <trkpt lat="43.52439" lon="6.31043">
        <ele>370.4</ele>
        <time>2016-12-11T10:25:14Z</time>
      </trkpt>
      <trkpt lat="43.5243" lon="6.31044">
        <ele>370.3</ele>
        <time>2016-12-11T10:25:21Z</time>
      </trkpt>
      <trkpt lat="43.52421" lon="6.3105">
        <ele>370.2</ele>
        <time>2016-12-11T10:25:30Z</time>
      </trkpt>
      <trkpt lat="43.52413" lon="6.31055">
        <ele>370.1</ele>
        <time>2016-12-11T10:25:47Z</time>
      </trkpt>
      <trkpt lat="43.52403" lon="6.31055">
        <ele>369.8</ele>
        <time>2016-12-11T10:26:00Z</time>
      </trkpt>
      <trkpt lat="43.52397" lon="6.31045">
        <ele>368.7</ele>
        <time>2016-12-11T10:26:14Z</time>
      </trkpt>
      <trkpt lat="43.52394" lon="6.31033">
        <ele>366.9</ele>
        <time>2016-12-11T10:26:29Z</time>
      </trkpt>
      <trkpt lat="43.5239" lon="6.31022">
        <ele>365.8</ele>
        <time>2016-12-11T10:26:39Z</time>
      </trkpt>
      <trkpt lat="43.52383" lon="6.31013">
        <ele>363.9</ele>
        <time>2016-12-11T10:26:51Z</time>
      </trkpt>
      <trkpt lat="43.52374" lon="6.31017">
        <ele>362.1</ele>
        <time>2016-12-11T10:27:07Z</time>
      </trkpt>
      <trkpt lat="43.52366" lon="6.31013">
        <ele>360.4</ele>
        <time>2016-12-11T10:27:21Z</time>
      </trkpt>
      <trkpt lat="43.52356" lon="6.31011">
        <ele>359.1</ele>
        <time>2016-12-11T10:27:31Z</time>
      </trkpt>
      <trkpt lat="43.52347" lon="6.31013">
        <ele>357.7</ele>
        <time>2016-12-11T10:27:40Z</time>
      </trkpt>
      <trkpt lat="43.52338" lon="6.31018">
        <ele>355.6</ele>
        <time>2016-12-11T10:27:52Z</time>
      </trkpt>
      <trkpt lat="43.52329" lon="6.31019">
        <ele>353.9</ele>
        <time>2016-12-11T10:28:02Z</time>
      </trkpt>
      <trkpt lat="43.5232" lon="6.31016">
        <ele>351.5</ele>
        <time>2016-12-11T10:28:15Z</time>
      </trkpt>
      <trkpt lat="43.52312" lon="6.31013">
        <ele>349.2</ele>
        <time>2016-12-11T10:28:27Z</time>
      </trkpt>
      <trkpt lat="43.52303" lon="6.31016">
        <ele>347.7</ele>
        <time>2016-12-11T10:28:37Z</time>
      </trkpt>
      <trkpt lat="43.52298" lon="6.31028">
        <ele>346.8</ele>
        <time>2016-12-11T10:28:47Z</time>
      </trkpt>
      <trkpt lat="43.52295" lon="6.3104">
        <ele>345.7</ele>
        <time>2016-12-11T10:29:53Z</time>
      </trkpt>
      <trkpt lat="43.52288" lon="6.31033">
        <ele>345.2</ele>
        <time>2016-12-11T10:30:31Z</time>
      </trkpt>
      <trkpt lat="43.52279" lon="6.31035">
        <ele>343.8</ele>
        <time>2016-12-11T10:35:29Z</time>
      </trkpt>
      <trkpt lat="43.52286" lon="6.31043">
        <ele>343.3</ele>
        <time>2016-12-11T10:38:23Z</time>
      </trkpt>
      <trkpt lat="43.52279" lon="6.31034">
        <ele>343.1</ele>
        <time>2016-12-11T10:38:53Z</time>
      </trkpt>
      <trkpt lat="43.52286" lon="6.31042">
        <ele>343.3</ele>
        <time>2016-12-11T10:40:07Z</time>
      </trkpt>
      <trkpt lat="43.5228" lon="6.31032">
        <ele>343.2</ele>
        <time>2016-12-11T10:40:49Z</time>
      </trkpt>
      <trkpt lat="43.52285" lon="6.31044">
        <ele>343.3</ele>
        <time>2016-12-11T10:41:00Z</time>
      </trkpt>
      <trkpt lat="43.52284" lon="6.31032">
        <ele>344.9</ele>
        <time>2016-12-11T10:42:47Z</time>
      </trkpt>
      <trkpt lat="43.52276" lon="6.31039">
        <ele>346.5</ele>
        <time>2016-12-11T10:57:25Z</time>
      </trkpt>
      <trkpt lat="43.5227" lon="6.31048">
        <ele>346.6</ele>
        <time>2016-12-11T10:57:35Z</time>
      </trkpt>
      <trkpt lat="43.52267" lon="6.3106">
        <ele>347.4</ele>
        <time>2016-12-11T11:00:05Z</time>
      </trkpt>
      <trkpt lat="43.52273" lon="6.3105">
        <ele>348.5</ele>
        <time>2016-12-11T11:03:52Z</time>
      </trkpt>
      <trkpt lat="43.52279" lon="6.31041">
        <ele>348.3</ele>
        <time>2016-12-11T11:04:23Z</time>
      </trkpt>
      <trkpt lat="43.52285" lon="6.31032">
        <ele>348.9</ele>
        <time>2016-12-11T11:05:33Z</time>
      </trkpt>
      <trkpt lat="43.5228" lon="6.31042">
        <ele>349.8</ele>
        <time>2016-12-11T11:13:51Z</time>
      </trkpt>
      <trkpt lat="43.52287" lon="6.31033">
        <ele>350.2</ele>
        <time>2016-12-11T11:15:09Z</time>
      </trkpt>
      <trkpt lat="43.52278" lon="6.31031">
        <ele>351.6</ele>
        <time>2016-12-11T11:18:43Z</time>
      </trkpt>
      <trkpt lat="43.52285" lon="6.31038">
        <ele>353.8</ele>
        <time>2016-12-11T11:30:39Z</time>
      </trkpt>
      <trkpt lat="43.52277" lon="6.31034">
        <ele>354.4</ele>
        <time>2016-12-11T11:33:31Z</time>
      </trkpt>
      <trkpt lat="43.52271" lon="6.31024">
        <ele>355</ele>
        <time>2016-12-11T11:41:28Z</time>
      </trkpt>
      <trkpt lat="43.52264" lon="6.31016">
        <ele>353.5</ele>
        <time>2016-12-11T11:41:41Z</time>
      </trkpt>
      <trkpt lat="43.52256" lon="6.31009">
        <ele>351.2</ele>
        <time>2016-12-11T11:41:58Z</time>
      </trkpt>
      <trkpt lat="43.52249" lon="6.31">
        <ele>348.7</ele>
        <time>2016-12-11T11:42:17Z</time>
      </trkpt>
      <trkpt lat="43.52241" lon="6.30994">
        <ele>346.8</ele>
        <time>2016-12-11T11:42:45Z</time>
      </trkpt>
      <trkpt lat="43.52233" lon="6.30986">
        <ele>345.6</ele>
        <time>2016-12-11T11:42:56Z</time>
      </trkpt>
      <trkpt lat="43.52226" lon="6.30978">
        <ele>344.9</ele>
        <time>2016-12-11T11:43:05Z</time>
      </trkpt>
      <trkpt lat="43.52219" lon="6.3097">
        <ele>343.3</ele>
        <time>2016-12-11T11:43:28Z</time>
      </trkpt>
      <trkpt lat="43.5222" lon="6.30983">
        <ele>343.3</ele>
        <time>2016-12-11T11:44:44Z</time>
      </trkpt>
      <trkpt lat="43.52213" lon="6.30975">
        <ele>343.1</ele>
        <time>2016-12-11T11:45:50Z</time>
      </trkpt>
      <trkpt lat="43.52205" lon="6.30983">
        <ele>343</ele>
        <time>2016-12-11T11:46:56Z</time>
      </trkpt>
      <trkpt lat="43.52199" lon="6.30992">
        <ele>342.7</ele>
        <time>2016-12-11T11:47:07Z</time>
      </trkpt>
      <trkpt lat="43.52194" lon="6.31003">
        <ele>342.2</ele>
        <time>2016-12-11T11:47:27Z</time>
      </trkpt>
      <trkpt lat="43.52189" lon="6.31014">
        <ele>342.4</ele>
        <time>2016-12-11T11:47:36Z</time>
      </trkpt>
      <trkpt lat="43.52184" lon="6.31023">
        <ele>342.5</ele>
        <time>2016-12-11T11:47:45Z</time>
      </trkpt>
      <trkpt lat="43.52179" lon="6.31035">
        <ele>342.5</ele>
        <time>2016-12-11T11:47:56Z</time>
      </trkpt>
      <trkpt lat="43.52174" lon="6.31045">
        <ele>342.4</ele>
        <time>2016-12-11T11:48:06Z</time>
      </trkpt>
      <trkpt lat="43.52168" lon="6.31055">
        <ele>342.2</ele>
        <time>2016-12-11T11:48:17Z</time>
      </trkpt>
      <trkpt lat="43.52162" lon="6.31065">
        <ele>342.1</ele>
        <time>2016-12-11T11:48:27Z</time>
      </trkpt>
      <trkpt lat="43.52157" lon="6.31076">
        <ele>342.1</ele>
        <time>2016-12-11T11:48:36Z</time>
      </trkpt>
      <trkpt lat="43.5215" lon="6.31086">
        <ele>342.2</ele>
        <time>2016-12-11T11:48:47Z</time>
      </trkpt>
      <trkpt lat="43.52142" lon="6.31092">
        <ele>342.3</ele>
        <time>2016-12-11T11:48:56Z</time>
      </trkpt>
      <trkpt lat="43.52135" lon="6.31101">
        <ele>342.4</ele>
        <time>2016-12-11T11:49:06Z</time>
      </trkpt>
      <trkpt lat="43.52126" lon="6.31108">
        <ele>342.4</ele>
        <time>2016-12-11T11:49:17Z</time>
      </trkpt>
      <trkpt lat="43.52119" lon="6.31115">
        <ele>342.4</ele>
        <time>2016-12-11T11:49:26Z</time>
      </trkpt>
      <trkpt lat="43.52111" lon="6.31122">
        <ele>342.2</ele>
        <time>2016-12-11T11:49:33Z</time>
      </trkpt>
      <trkpt lat="43.52102" lon="6.31126">
        <ele>341.7</ele>
        <time>2016-12-11T11:49:41Z</time>
      </trkpt>
      <trkpt lat="43.52094" lon="6.31133">
        <ele>341.4</ele>
        <time>2016-12-11T11:49:49Z</time>
      </trkpt>
      <trkpt lat="43.52085" lon="6.31136">
        <ele>341</ele>
        <time>2016-12-11T11:49:56Z</time>
      </trkpt>
      <trkpt lat="43.52077" lon="6.31141">
        <ele>340.2</ele>
        <time>2016-12-11T11:50:05Z</time>
      </trkpt>
      <trkpt lat="43.5207" lon="6.31152">
        <ele>339.1</ele>
        <time>2016-12-11T11:50:15Z</time>
      </trkpt>
      <trkpt lat="43.52065" lon="6.31162">
        <ele>338.5</ele>
        <time>2016-12-11T11:50:22Z</time>
      </trkpt>
      <trkpt lat="43.52059" lon="6.31173">
        <ele>338.2</ele>
        <time>2016-12-11T11:50:31Z</time>
      </trkpt>
      <trkpt lat="43.52054" lon="6.31183">
        <ele>337.6</ele>
        <time>2016-12-11T11:50:58Z</time>
      </trkpt>
      <trkpt lat="43.52058" lon="6.31194">
        <ele>336.7</ele>
        <time>2016-12-11T11:52:27Z</time>
      </trkpt>
      <trkpt lat="43.52065" lon="6.31186">
        <ele>337.4</ele>
        <time>2016-12-11T11:54:51Z</time>
      </trkpt>
      <trkpt lat="43.52058" lon="6.31194">
        <ele>337.9</ele>
        <time>2016-12-11T11:56:55Z</time>
      </trkpt>
      <trkpt lat="43.5205" lon="6.31201">
        <ele>338</ele>
        <time>2016-12-11T11:57:11Z</time>
      </trkpt>
      <trkpt lat="43.52059" lon="6.31198">
        <ele>337.7</ele>
        <time>2016-12-11T11:57:43Z</time>
      </trkpt>
      <trkpt lat="43.52068" lon="6.31204">
        <ele>338.3</ele>
        <time>2016-12-11T11:58:10Z</time>
      </trkpt>
      <trkpt lat="43.52058" lon="6.31204">
        <ele>338</ele>
        <time>2016-12-11T11:59:10Z</time>
      </trkpt>
      <trkpt lat="43.52049" lon="6.31205">
        <ele>338.2</ele>
        <time>2016-12-11T11:59:46Z</time>
      </trkpt>
      <trkpt lat="43.52041" lon="6.3121">
        <ele>337.8</ele>
        <time>2016-12-11T12:00:00Z</time>
      </trkpt>
      <trkpt lat="43.52037" lon="6.31222">
        <ele>337</ele>
        <time>2016-12-11T12:00:13Z</time>
      </trkpt>
      <trkpt lat="43.52031" lon="6.31232">
        <ele>335.9</ele>
        <time>2016-12-11T12:00:29Z</time>
      </trkpt>
      <trkpt lat="43.52023" lon="6.3124">
        <ele>335</ele>
        <time>2016-12-11T12:00:39Z</time>
      </trkpt>
      <trkpt lat="43.52013" lon="6.31242">
        <ele>334</ele>
        <time>2016-12-11T12:00:47Z</time>
      </trkpt>
      <trkpt lat="43.52005" lon="6.31247">
        <ele>333</ele>
        <time>2016-12-11T12:00:55Z</time>
      </trkpt>
      <trkpt lat="43.51996" lon="6.31252">
        <ele>332.5</ele>
        <time>2016-12-11T12:01:01Z</time>
      </trkpt>
      <trkpt lat="43.51987" lon="6.31258">
        <ele>331.8</ele>
        <time>2016-12-11T12:01:09Z</time>
      </trkpt>
      <trkpt lat="43.51978" lon="6.31265">
        <ele>330.5</ele>
        <time>2016-12-11T12:01:27Z</time>
      </trkpt>
      <trkpt lat="43.51972" lon="6.31274">
        <ele>330.3</ele>
        <time>2016-12-11T12:01:39Z</time>
      </trkpt>
      <trkpt lat="43.51962" lon="6.31276">
        <ele>331.5</ele>
        <time>2016-12-11T12:02:13Z</time>
      </trkpt>
      <trkpt lat="43.51971" lon="6.31281">
        <ele>331.4</ele>
        <time>2016-12-11T12:02:45Z</time>
      </trkpt>
      <trkpt lat="43.5198" lon="6.31277">
        <ele>331.3</ele>
        <time>2016-12-11T12:05:48Z</time>
      </trkpt>
      <trkpt lat="43.5199" lon="6.31274">
        <ele>331.6</ele>
        <time>2016-12-11T12:05:59Z</time>
      </trkpt>
      <trkpt lat="43.51999" lon="6.31269">
        <ele>332.3</ele>
        <time>2016-12-11T12:06:17Z</time>
      </trkpt>
      <trkpt lat="43.52007" lon="6.31275">
        <ele>333.1</ele>
        <time>2016-12-11T12:06:37Z</time>
      </trkpt>
      <trkpt lat="43.52017" lon="6.31275">
        <ele>334.5</ele>
        <time>2016-12-11T12:07:05Z</time>
      </trkpt>
      <trkpt lat="43.52016" lon="6.31262">
        <ele>334.6</ele>
        <time>2016-12-11T12:07:15Z</time>
      </trkpt>
      <trkpt lat="43.5201" lon="6.31252">
        <ele>334.7</ele>
        <time>2016-12-11T12:07:33Z</time>
      </trkpt>
      <trkpt lat="43.52016" lon="6.31261">
        <ele>334.8</ele>
        <time>2016-12-11T12:08:12Z</time>
      </trkpt>
      <trkpt lat="43.52023" lon="6.31271">
        <ele>335</ele>
        <time>2016-12-11T12:08:21Z</time>
      </trkpt>
      <trkpt lat="43.52026" lon="6.31284">
        <ele>335.1</ele>
        <time>2016-12-11T12:08:32Z</time>
      </trkpt>
      <trkpt lat="43.52033" lon="6.31293">
        <ele>335.4</ele>
        <time>2016-12-11T12:08:41Z</time>
      </trkpt>
      <trkpt lat="43.5204" lon="6.31303">
        <ele>335.8</ele>
        <time>2016-12-11T12:08:50Z</time>
      </trkpt>
      <trkpt lat="43.52047" lon="6.31311">
        <ele>336.3</ele>
        <time>2016-12-11T12:08:59Z</time>
      </trkpt>
      <trkpt lat="43.52055" lon="6.3132">
        <ele>336.8</ele>
        <time>2016-12-11T12:09:07Z</time>
      </trkpt>
      <trkpt lat="43.52063" lon="6.31326">
        <ele>337.3</ele>
        <time>2016-12-11T12:09:15Z</time>
      </trkpt>
      <trkpt lat="43.52071" lon="6.31333">
        <ele>337.9</ele>
        <time>2016-12-11T12:09:23Z</time>
      </trkpt>
      <trkpt lat="43.52078" lon="6.31341">
        <ele>338.4</ele>
        <time>2016-12-11T12:09:33Z</time>
      </trkpt>
      <trkpt lat="43.52087" lon="6.31348">
        <ele>338.9</ele>
        <time>2016-12-11T12:09:44Z</time>
      </trkpt>
      <trkpt lat="43.52095" lon="6.31355">
        <ele>339.7</ele>
        <time>2016-12-11T12:09:56Z</time>
      </trkpt>
      <trkpt lat="43.52104" lon="6.31358">
        <ele>340.5</ele>
        <time>2016-12-11T12:10:10Z</time>
      </trkpt>
      <trkpt lat="43.52113" lon="6.31364">
        <ele>341.6</ele>
        <time>2016-12-11T12:10:29Z</time>
      </trkpt>
      <trkpt lat="43.52119" lon="6.31372">
        <ele>342.5</ele>
        <time>2016-12-11T12:10:43Z</time>
      </trkpt>
      <trkpt lat="43.52125" lon="6.31381">
        <ele>343.9</ele>
        <time>2016-12-11T12:11:22Z</time>
      </trkpt>
      <trkpt lat="43.52129" lon="6.31369">
        <ele>344.5</ele>
        <time>2016-12-11T12:12:15Z</time>
      </trkpt>
      <trkpt lat="43.52138" lon="6.31366">
        <ele>344.3</ele>
        <time>2016-12-11T12:12:34Z</time>
      </trkpt>
      <trkpt lat="43.52147" lon="6.31363">
        <ele>344.5</ele>
        <time>2016-12-11T12:12:48Z</time>
      </trkpt>
      <trkpt lat="43.52154" lon="6.3137">
        <ele>344.5</ele>
        <time>2016-12-11T12:13:01Z</time>
      </trkpt>
      <trkpt lat="43.52157" lon="6.31382">
        <ele>344.3</ele>
        <time>2016-12-11T12:13:17Z</time>
      </trkpt>
      <trkpt lat="43.52148" lon="6.31386">
        <ele>344.4</ele>
        <time>2016-12-11T12:13:26Z</time>
      </trkpt>
      <trkpt lat="43.52139" lon="6.31388">
        <ele>344.8</ele>
        <time>2016-12-11T12:13:36Z</time>
      </trkpt>
      <trkpt lat="43.52129" lon="6.31388">
        <ele>345</ele>
        <time>2016-12-11T12:13:45Z</time>
      </trkpt>
      <trkpt lat="43.5212" lon="6.31386">
        <ele>345.3</ele>
        <time>2016-12-11T12:13:55Z</time>
      </trkpt>
      <trkpt lat="43.52112" lon="6.31391">
        <ele>345.4</ele>
        <time>2016-12-11T12:14:05Z</time>
      </trkpt>
      <trkpt lat="43.52103" lon="6.31395">
        <ele>345.7</ele>
        <time>2016-12-11T12:14:15Z</time>
      </trkpt>
      <trkpt lat="43.52095" lon="6.31403">
        <ele>346.1</ele>
        <time>2016-12-11T12:14:23Z</time>
      </trkpt>
      <trkpt lat="43.52092" lon="6.31416">
        <ele>346.6</ele>
        <time>2016-12-11T12:14:30Z</time>
      </trkpt>
      <trkpt lat="43.52088" lon="6.31428">
        <ele>347.1</ele>
        <time>2016-12-11T12:14:39Z</time>
      </trkpt>
      <trkpt lat="43.52084" lon="6.3144">
        <ele>347.6</ele>
        <time>2016-12-11T12:14:49Z</time>
      </trkpt>
      <trkpt lat="43.52078" lon="6.3145">
        <ele>347.9</ele>
        <time>2016-12-11T12:14:58Z</time>
      </trkpt>
      <trkpt lat="43.52075" lon="6.31463">
        <ele>348</ele>
        <time>2016-12-11T12:15:08Z</time>
      </trkpt>
      <trkpt lat="43.52074" lon="6.31477">
        <ele>348.1</ele>
        <time>2016-12-11T12:15:17Z</time>
      </trkpt>
      <trkpt lat="43.52072" lon="6.3149">
        <ele>348.2</ele>
        <time>2016-12-11T12:15:27Z</time>
      </trkpt>
      <trkpt lat="43.52068" lon="6.31503">
        <ele>348.2</ele>
        <time>2016-12-11T12:15:45Z</time>
      </trkpt>
      <trkpt lat="43.5207" lon="6.31516">
        <ele>348</ele>
        <time>2016-12-11T12:15:54Z</time>
      </trkpt>
      <trkpt lat="43.52075" lon="6.31526">
        <ele>348</ele>
        <time>2016-12-11T12:16:03Z</time>
      </trkpt>
      <trkpt lat="43.52077" lon="6.31538">
        <ele>347.9</ele>
        <time>2016-12-11T12:16:15Z</time>
      </trkpt>
      <trkpt lat="43.52069" lon="6.31546">
        <ele>347.8</ele>
        <time>2016-12-11T12:16:33Z</time>
      </trkpt>
      <trkpt lat="43.5206" lon="6.31548">
        <ele>347.8</ele>
        <time>2016-12-11T12:16:41Z</time>
      </trkpt>
      <trkpt lat="43.52051" lon="6.31549">
        <ele>348.2</ele>
        <time>2016-12-11T12:16:59Z</time>
      </trkpt>
      <trkpt lat="43.52043" lon="6.31555">
        <ele>348.8</ele>
        <time>2016-12-11T12:17:19Z</time>
      </trkpt>
      <trkpt lat="43.52033" lon="6.31557">
        <ele>349.5</ele>
        <time>2016-12-11T12:17:30Z</time>
      </trkpt>
      <trkpt lat="43.52023" lon="6.31558">
        <ele>350.2</ele>
        <time>2016-12-11T12:17:39Z</time>
      </trkpt>
      <trkpt lat="43.52016" lon="6.3155">
        <ele>350.6</ele>
        <time>2016-12-11T12:17:49Z</time>
      </trkpt>
      <trkpt lat="43.52007" lon="6.31549">
        <ele>350.9</ele>
        <time>2016-12-11T12:17:58Z</time>
      </trkpt>
      <trkpt lat="43.51998" lon="6.31543">
        <ele>351.2</ele>
        <time>2016-12-11T12:18:09Z</time>
      </trkpt>
      <trkpt lat="43.51992" lon="6.31534">
        <ele>351.3</ele>
        <time>2016-12-11T12:18:19Z</time>
      </trkpt>
      <trkpt lat="43.51983" lon="6.31527">
        <ele>351.5</ele>
        <time>2016-12-11T12:18:28Z</time>
      </trkpt>
      <trkpt lat="43.51976" lon="6.3152">
        <ele>351.6</ele>
        <time>2016-12-11T12:18:37Z</time>
      </trkpt>
      <trkpt lat="43.51968" lon="6.31513">
        <ele>352</ele>
        <time>2016-12-11T12:18:46Z</time>
      </trkpt>
      <trkpt lat="43.51961" lon="6.31504">
        <ele>352.3</ele>
        <time>2016-12-11T12:18:57Z</time>
      </trkpt>
      <trkpt lat="43.51957" lon="6.31492">
        <ele>352.8</ele>
        <time>2016-12-11T12:19:11Z</time>
      </trkpt>
      <trkpt lat="43.51952" lon="6.3148">
        <ele>353</ele>
        <time>2016-12-11T12:19:21Z</time>
      </trkpt>
      <trkpt lat="43.51946" lon="6.3147">
        <ele>353</ele>
        <time>2016-12-11T12:19:32Z</time>
      </trkpt>
      <trkpt lat="43.51939" lon="6.3146">
        <ele>352.8</ele>
        <time>2016-12-11T12:19:42Z</time>
      </trkpt>
      <trkpt lat="43.5193" lon="6.3146">
        <ele>352</ele>
        <time>2016-12-11T12:19:56Z</time>
      </trkpt>
      <trkpt lat="43.51926" lon="6.31472">
        <ele>351.7</ele>
        <time>2016-12-11T12:20:13Z</time>
      </trkpt>
      <trkpt lat="43.51924" lon="6.31486">
        <ele>351.8</ele>
        <time>2016-12-11T12:20:24Z</time>
      </trkpt>
      <trkpt lat="43.5192" lon="6.31497">
        <ele>352.1</ele>
        <time>2016-12-11T12:20:32Z</time>
      </trkpt>
      <trkpt lat="43.51917" lon="6.3151">
        <ele>352.4</ele>
        <time>2016-12-11T12:20:41Z</time>
      </trkpt>
      <trkpt lat="43.51915" lon="6.31522">
        <ele>352.6</ele>
        <time>2016-12-11T12:20:50Z</time>
      </trkpt>
      <trkpt lat="43.51911" lon="6.31533">
        <ele>352.8</ele>
        <time>2016-12-11T12:21:00Z</time>
      </trkpt>
      <trkpt lat="43.51908" lon="6.31546">
        <ele>352.8</ele>
        <time>2016-12-11T12:21:11Z</time>
      </trkpt>
      <trkpt lat="43.51902" lon="6.31555">
        <ele>352.9</ele>
        <time>2016-12-11T12:21:33Z</time>
      </trkpt>
      <trkpt lat="43.51903" lon="6.31568">
        <ele>353</ele>
        <time>2016-12-11T12:21:48Z</time>
      </trkpt>
      <trkpt lat="43.519" lon="6.3158">
        <ele>352.4</ele>
        <time>2016-12-11T12:22:30Z</time>
      </trkpt>
      <trkpt lat="43.51893" lon="6.31588">
        <ele>351.4</ele>
        <time>2016-12-11T12:22:42Z</time>
      </trkpt>
      <trkpt lat="43.51886" lon="6.31596">
        <ele>349.6</ele>
        <time>2016-12-11T12:22:56Z</time>
      </trkpt>
      <trkpt lat="43.51882" lon="6.31607">
        <ele>346.4</ele>
        <time>2016-12-11T12:23:18Z</time>
      </trkpt>
      <trkpt lat="43.51879" lon="6.31619">
        <ele>344.9</ele>
        <time>2016-12-11T12:23:31Z</time>
      </trkpt>
      <trkpt lat="43.51872" lon="6.31628">
        <ele>341.9</ele>
        <time>2016-12-11T12:23:55Z</time>
      </trkpt>
      <trkpt lat="43.51865" lon="6.31636">
        <ele>339.6</ele>
        <time>2016-12-11T12:24:17Z</time>
      </trkpt>
      <trkpt lat="43.51857" lon="6.31641">
        <ele>337.9</ele>
        <time>2016-12-11T12:24:31Z</time>
      </trkpt>
      <trkpt lat="43.51848" lon="6.31644">
        <ele>336.6</ele>
        <time>2016-12-11T12:24:45Z</time>
      </trkpt>
      <trkpt lat="43.51839" lon="6.31648">
        <ele>336</ele>
        <time>2016-12-11T12:24:55Z</time>
      </trkpt>
      <trkpt lat="43.51836" lon="6.3166">
        <ele>335.4</ele>
        <time>2016-12-11T12:25:13Z</time>
      </trkpt>
      <trkpt lat="43.51837" lon="6.31673">
        <ele>335.6</ele>
        <time>2016-12-11T12:25:26Z</time>
      </trkpt>
      <trkpt lat="43.51828" lon="6.31676">
        <ele>335.8</ele>
        <time>2016-12-11T12:25:35Z</time>
      </trkpt>
      <trkpt lat="43.51824" lon="6.31688">
        <ele>335.8</ele>
        <time>2016-12-11T12:25:47Z</time>
      </trkpt>
      <trkpt lat="43.51814" lon="6.31687">
        <ele>334</ele>
        <time>2016-12-11T12:26:28Z</time>
      </trkpt>
      <trkpt lat="43.51805" lon="6.3169">
        <ele>333.8</ele>
        <time>2016-12-11T12:26:37Z</time>
      </trkpt>
      <trkpt lat="43.518" lon="6.31702">
        <ele>333.4</ele>
        <time>2016-12-11T12:26:50Z</time>
      </trkpt>
      <trkpt lat="43.518" lon="6.31715">
        <ele>333.2</ele>
        <time>2016-12-11T12:26:58Z</time>
      </trkpt>
      <trkpt lat="43.51798" lon="6.31728">
        <ele>333.1</ele>
        <time>2016-12-11T12:27:08Z</time>
      </trkpt>
      <trkpt lat="43.518" lon="6.31741">
        <ele>333.5</ele>
        <time>2016-12-11T12:27:21Z</time>
      </trkpt>
      <trkpt lat="43.51807" lon="6.31749">
        <ele>334.7</ele>
        <time>2016-12-11T12:27:35Z</time>
      </trkpt>
      <trkpt lat="43.5181" lon="6.31761">
        <ele>336.1</ele>
        <time>2016-12-11T12:27:48Z</time>
      </trkpt>
      <trkpt lat="43.51811" lon="6.31773">
        <ele>337.5</ele>
        <time>2016-12-11T12:27:59Z</time>
      </trkpt>
      <trkpt lat="43.51814" lon="6.31785">
        <ele>338.3</ele>
        <time>2016-12-11T12:28:10Z</time>
      </trkpt>
      <trkpt lat="43.51816" lon="6.31798">
        <ele>338.8</ele>
        <time>2016-12-11T12:28:21Z</time>
      </trkpt>
      <trkpt lat="43.51821" lon="6.31809">
        <ele>339.3</ele>
        <time>2016-12-11T12:28:33Z</time>
      </trkpt>
      <trkpt lat="43.51828" lon="6.31817">
        <ele>340.1</ele>
        <time>2016-12-11T12:28:43Z</time>
      </trkpt>
      <trkpt lat="43.51833" lon="6.31827">
        <ele>342</ele>
        <time>2016-12-11T12:29:01Z</time>
      </trkpt>
      <trkpt lat="43.51839" lon="6.31838">
        <ele>343.4</ele>
        <time>2016-12-11T12:29:13Z</time>
      </trkpt>
      <trkpt lat="43.51845" lon="6.31848">
        <ele>344.3</ele>
        <time>2016-12-11T12:29:29Z</time>
      </trkpt>
      <trkpt lat="43.51849" lon="6.31859">
        <ele>345</ele>
        <time>2016-12-11T12:29:40Z</time>
      </trkpt>
      <trkpt lat="43.51858" lon="6.31866">
        <ele>345.8</ele>
        <time>2016-12-11T12:29:50Z</time>
      </trkpt>
      <trkpt lat="43.51864" lon="6.31874">
        <ele>347.1</ele>
        <time>2016-12-11T12:30:04Z</time>
      </trkpt>
      <trkpt lat="43.51872" lon="6.31882">
        <ele>349.2</ele>
        <time>2016-12-11T12:30:21Z</time>
      </trkpt>
      <trkpt lat="43.51873" lon="6.31894">
        <ele>351.2</ele>
        <time>2016-12-11T12:30:37Z</time>
      </trkpt>
      <trkpt lat="43.51866" lon="6.31904">
        <ele>352.3</ele>
        <time>2016-12-11T12:30:49Z</time>
      </trkpt>
      <trkpt lat="43.51861" lon="6.31914">
        <ele>353.1</ele>
        <time>2016-12-11T12:31:01Z</time>
      </trkpt>
      <trkpt lat="43.51857" lon="6.31926">
        <ele>353.5</ele>
        <time>2016-12-11T12:31:12Z</time>
      </trkpt>
      <trkpt lat="43.51851" lon="6.31937">
        <ele>354.4</ele>
        <time>2016-12-11T12:31:23Z</time>
      </trkpt>
      <trkpt lat="43.51853" lon="6.31949">
        <ele>355.4</ele>
        <time>2016-12-11T12:31:36Z</time>
      </trkpt>
      <trkpt lat="43.5186" lon="6.31957">
        <ele>356.3</ele>
        <time>2016-12-11T12:31:48Z</time>
      </trkpt>
      <trkpt lat="43.51869" lon="6.31962">
        <ele>357.2</ele>
        <time>2016-12-11T12:31:59Z</time>
      </trkpt>
      <trkpt lat="43.51876" lon="6.31969">
        <ele>358.6</ele>
        <time>2016-12-11T12:32:17Z</time>
      </trkpt>
      <trkpt lat="43.51884" lon="6.31976">
        <ele>360.5</ele>
        <time>2016-12-11T12:32:44Z</time>
      </trkpt>
      <trkpt lat="43.51893" lon="6.31981">
        <ele>361.2</ele>
        <time>2016-12-11T12:33:12Z</time>
      </trkpt>
      <trkpt lat="43.51902" lon="6.31986">
        <ele>362.4</ele>
        <time>2016-12-11T12:33:29Z</time>
      </trkpt>
      <trkpt lat="43.51908" lon="6.31996">
        <ele>364.4</ele>
        <time>2016-12-11T12:33:47Z</time>
      </trkpt>
      <trkpt lat="43.51916" lon="6.32003">
        <ele>365.8</ele>
        <time>2016-12-11T12:34:02Z</time>
      </trkpt>
      <trkpt lat="43.51919" lon="6.32015">
        <ele>367.1</ele>
        <time>2016-12-11T12:34:16Z</time>
      </trkpt>
      <trkpt lat="43.51918" lon="6.32028">
        <ele>368.3</ele>
        <time>2016-12-11T12:34:30Z</time>
      </trkpt>
      <trkpt lat="43.51921" lon="6.3204">
        <ele>369.8</ele>
        <time>2016-12-11T12:34:54Z</time>
      </trkpt>
      <trkpt lat="43.5193" lon="6.32038">
        <ele>371.4</ele>
        <time>2016-12-11T12:35:29Z</time>
      </trkpt>
      <trkpt lat="43.51925" lon="6.32048">
        <ele>372.1</ele>
        <time>2016-12-11T12:37:08Z</time>
      </trkpt>
      <trkpt lat="43.51928" lon="6.32061">
        <ele>373.6</ele>
        <time>2016-12-11T12:37:23Z</time>
      </trkpt>
      <trkpt lat="43.51924" lon="6.32072">
        <ele>375.2</ele>
        <time>2016-12-11T12:37:37Z</time>
      </trkpt>
      <trkpt lat="43.5192" lon="6.32084">
        <ele>377.5</ele>
        <time>2016-12-11T12:37:52Z</time>
      </trkpt>
      <trkpt lat="43.5192" lon="6.32097">
        <ele>379.1</ele>
        <time>2016-12-11T12:38:04Z</time>
      </trkpt>
      <trkpt lat="43.51928" lon="6.32102">
        <ele>380.3</ele>
        <time>2016-12-11T12:38:12Z</time>
      </trkpt>
      <trkpt lat="43.51937" lon="6.32098">
        <ele>381.5</ele>
        <time>2016-12-11T12:38:23Z</time>
      </trkpt>
      <trkpt lat="43.51943" lon="6.32088">
        <ele>382.6</ele>
        <time>2016-12-11T12:38:39Z</time>
      </trkpt>
      <trkpt lat="43.51953" lon="6.32088">
        <ele>383.3</ele>
        <time>2016-12-11T12:39:30Z</time>
      </trkpt>
      <trkpt lat="43.51956" lon="6.32076">
        <ele>384</ele>
        <time>2016-12-11T12:41:25Z</time>
      </trkpt>
      <trkpt lat="43.51963" lon="6.32067">
        <ele>384.3</ele>
        <time>2016-12-11T12:41:51Z</time>
      </trkpt>
      <trkpt lat="43.51972" lon="6.32063">
        <ele>384.5</ele>
        <time>2016-12-11T12:42:22Z</time>
      </trkpt>
      <trkpt lat="43.51981" lon="6.3206">
        <ele>386</ele>
        <time>2016-12-11T12:42:39Z</time>
      </trkpt>
      <trkpt lat="43.51989" lon="6.32056">
        <ele>387.3</ele>
        <time>2016-12-11T12:42:52Z</time>
      </trkpt>
      <trkpt lat="43.51998" lon="6.32051">
        <ele>388.3</ele>
        <time>2016-12-11T12:43:01Z</time>
      </trkpt>
      <trkpt lat="43.52006" lon="6.32045">
        <ele>389</ele>
        <time>2016-12-11T12:43:09Z</time>
      </trkpt>
      <trkpt lat="43.52016" lon="6.32039">
        <ele>389.8</ele>
        <time>2016-12-11T12:43:19Z</time>
      </trkpt>
      <trkpt lat="43.52024" lon="6.32033">
        <ele>390.3</ele>
        <time>2016-12-11T12:43:31Z</time>
      </trkpt>
      <trkpt lat="43.52033" lon="6.3203">
        <ele>390.9</ele>
        <time>2016-12-11T12:43:44Z</time>
      </trkpt>
      <trkpt lat="43.52041" lon="6.32024">
        <ele>391</ele>
        <time>2016-12-11T12:43:50Z</time>
      </trkpt>
      <trkpt lat="43.52048" lon="6.32015">
        <ele>391.1</ele>
        <time>2016-12-11T12:43:57Z</time>
      </trkpt>
      <trkpt lat="43.52058" lon="6.32017">
        <ele>390.6</ele>
        <time>2016-12-11T12:44:07Z</time>
      </trkpt>
      <trkpt lat="43.52067" lon="6.32019">
        <ele>390.4</ele>
        <time>2016-12-11T12:44:14Z</time>
      </trkpt>
      <trkpt lat="43.52077" lon="6.32022">
        <ele>390.2</ele>
        <time>2016-12-11T12:44:21Z</time>
      </trkpt>
      <trkpt lat="43.52086" lon="6.32024">
        <ele>389.7</ele>
        <time>2016-12-11T12:44:31Z</time>
      </trkpt>
      <trkpt lat="43.52095" lon="6.32029">
        <ele>389.2</ele>
        <time>2016-12-11T12:44:43Z</time>
      </trkpt>
      <trkpt lat="43.52104" lon="6.32033">
        <ele>388.6</ele>
        <time>2016-12-11T12:44:51Z</time>
      </trkpt>
      <trkpt lat="43.52114" lon="6.32038">
        <ele>387.8</ele>
        <time>2016-12-11T12:44:59Z</time>
      </trkpt>
      <trkpt lat="43.52122" lon="6.32043">
        <ele>387.1</ele>
        <time>2016-12-11T12:45:06Z</time>
      </trkpt>
      <trkpt lat="43.52131" lon="6.32045">
        <ele>385.9</ele>
        <time>2016-12-11T12:45:14Z</time>
      </trkpt>
      <trkpt lat="43.5214" lon="6.32041">
        <ele>384.5</ele>
        <time>2016-12-11T12:45:24Z</time>
      </trkpt>
      <trkpt lat="43.52148" lon="6.32035">
        <ele>383.7</ele>
        <time>2016-12-11T12:45:30Z</time>
      </trkpt>
      <trkpt lat="43.52157" lon="6.32029">
        <ele>383</ele>
        <time>2016-12-11T12:45:37Z</time>
      </trkpt>
      <trkpt lat="43.52164" lon="6.3202">
        <ele>381.6</ele>
        <time>2016-12-11T12:45:49Z</time>
      </trkpt>
      <trkpt lat="43.52171" lon="6.32012">
        <ele>379.4</ele>
        <time>2016-12-11T12:46:06Z</time>
      </trkpt>
      <trkpt lat="43.5218" lon="6.32012">
        <ele>377.6</ele>
        <time>2016-12-11T12:46:21Z</time>
      </trkpt>
      <trkpt lat="43.52189" lon="6.32016">
        <ele>376.6</ele>
        <time>2016-12-11T12:46:34Z</time>
      </trkpt>
      <trkpt lat="43.52198" lon="6.32021">
        <ele>376.4</ele>
        <time>2016-12-11T12:46:45Z</time>
      </trkpt>
      <trkpt lat="43.52206" lon="6.32027">
        <ele>377.1</ele>
        <time>2016-12-11T12:47:03Z</time>
      </trkpt>
      <trkpt lat="43.52215" lon="6.32024">
        <ele>377.9</ele>
        <time>2016-12-11T12:47:24Z</time>
      </trkpt>
      <trkpt lat="43.52224" lon="6.32021">
        <ele>378</ele>
        <time>2016-12-11T12:47:52Z</time>
      </trkpt>
      <trkpt lat="43.5223" lon="6.32031">
        <ele>379.4</ele>
        <time>2016-12-11T12:49:10Z</time>
      </trkpt>
      <trkpt lat="43.52235" lon="6.32042">
        <ele>379.6</ele>
        <time>2016-12-11T12:49:21Z</time>
      </trkpt>
      <trkpt lat="43.52242" lon="6.3205">
        <ele>379.9</ele>
        <time>2016-12-11T12:49:32Z</time>
      </trkpt>
      <trkpt lat="43.52246" lon="6.32062">
        <ele>380.7</ele>
        <time>2016-12-11T12:49:48Z</time>
      </trkpt>
      <trkpt lat="43.52254" lon="6.32069">
        <ele>381.3</ele>
        <time>2016-12-11T12:49:56Z</time>
      </trkpt>
      <trkpt lat="43.52261" lon="6.32078">
        <ele>381.8</ele>
        <time>2016-12-11T12:50:07Z</time>
      </trkpt>
      <trkpt lat="43.52267" lon="6.32088">
        <ele>382.6</ele>
        <time>2016-12-11T12:50:18Z</time>
      </trkpt>
      <trkpt lat="43.52272" lon="6.321">
        <ele>383.9</ele>
        <time>2016-12-11T12:50:34Z</time>
      </trkpt>
      <trkpt lat="43.52279" lon="6.32108">
        <ele>384.8</ele>
        <time>2016-12-11T12:50:46Z</time>
      </trkpt>
      <trkpt lat="43.52287" lon="6.32115">
        <ele>385.4</ele>
        <time>2016-12-11T12:50:55Z</time>
      </trkpt>
      <trkpt lat="43.52296" lon="6.32115">
        <ele>385.9</ele>
        <time>2016-12-11T12:51:02Z</time>
      </trkpt>
      <trkpt lat="43.52305" lon="6.32117">
        <ele>386.7</ele>
        <time>2016-12-11T12:51:12Z</time>
      </trkpt>
      <trkpt lat="43.52315" lon="6.32121">
        <ele>387.3</ele>
        <time>2016-12-11T12:51:24Z</time>
      </trkpt>
      <trkpt lat="43.52324" lon="6.32123">
        <ele>387.7</ele>
        <time>2016-12-11T12:51:32Z</time>
      </trkpt>
      <trkpt lat="43.52333" lon="6.32124">
        <ele>387.9</ele>
        <time>2016-12-11T12:51:42Z</time>
      </trkpt>
      <trkpt lat="43.52342" lon="6.32121">
        <ele>388</ele>
        <time>2016-12-11T12:51:51Z</time>
      </trkpt>
      <trkpt lat="43.52352" lon="6.32124">
        <ele>387.9</ele>
        <time>2016-12-11T12:52:00Z</time>
      </trkpt>
      <trkpt lat="43.5236" lon="6.32131">
        <ele>387.4</ele>
        <time>2016-12-11T12:52:13Z</time>
      </trkpt>
      <trkpt lat="43.52368" lon="6.32138">
        <ele>386.3</ele>
        <time>2016-12-11T12:52:30Z</time>
      </trkpt>
      <trkpt lat="43.52377" lon="6.32139">
        <ele>384</ele>
        <time>2016-12-11T12:53:51Z</time>
      </trkpt>
      <trkpt lat="43.5237" lon="6.32131">
        <ele>382.2</ele>
        <time>2016-12-11T12:55:47Z</time>
      </trkpt>
      <trkpt lat="43.52376" lon="6.3214">
        <ele>380</ele>
        <time>2016-12-11T12:57:19Z</time>
      </trkpt>
      <trkpt lat="43.52368" lon="6.32144">
        <ele>379.5</ele>
        <time>2016-12-11T12:58:17Z</time>
      </trkpt>
      <trkpt lat="43.52365" lon="6.32157">
        <ele>379.1</ele>
        <time>2016-12-11T12:58:38Z</time>
      </trkpt>
      <trkpt lat="43.52357" lon="6.32164">
        <ele>378.9</ele>
        <time>2016-12-11T12:58:51Z</time>
      </trkpt>
      <trkpt lat="43.52352" lon="6.32176">
        <ele>378.3</ele>
        <time>2016-12-11T12:59:02Z</time>
      </trkpt>
      <trkpt lat="43.52347" lon="6.32186">
        <ele>377.8</ele>
        <time>2016-12-11T12:59:12Z</time>
      </trkpt>
      <trkpt lat="43.52341" lon="6.32197">
        <ele>377.5</ele>
        <time>2016-12-11T12:59:20Z</time>
      </trkpt>
      <trkpt lat="43.52334" lon="6.32205">
        <ele>377.1</ele>
        <time>2016-12-11T12:59:29Z</time>
      </trkpt>
      <trkpt lat="43.5233" lon="6.32217">
        <ele>376.7</ele>
        <time>2016-12-11T12:59:40Z</time>
      </trkpt>
      <trkpt lat="43.52324" lon="6.32227">
        <ele>376.4</ele>
        <time>2016-12-11T12:59:48Z</time>
      </trkpt>
      <trkpt lat="43.52317" lon="6.32237">
        <ele>375.8</ele>
        <time>2016-12-11T13:00:01Z</time>
      </trkpt>
      <trkpt lat="43.52307" lon="6.32243">
        <ele>375.5</ele>
        <time>2016-12-11T13:00:10Z</time>
      </trkpt>
      <trkpt lat="43.523" lon="6.32251">
        <ele>375.4</ele>
        <time>2016-12-11T13:00:18Z</time>
      </trkpt>
      <trkpt lat="43.52291" lon="6.32257">
        <ele>375.3</ele>
        <time>2016-12-11T13:00:25Z</time>
      </trkpt>
      <trkpt lat="43.52285" lon="6.32267">
        <ele>375.1</ele>
        <time>2016-12-11T13:00:34Z</time>
      </trkpt>
      <trkpt lat="43.52276" lon="6.32273">
        <ele>375</ele>
        <time>2016-12-11T13:00:42Z</time>
      </trkpt>
      <trkpt lat="43.52268" lon="6.32279">
        <ele>375</ele>
        <time>2016-12-11T13:00:49Z</time>
      </trkpt>
      <trkpt lat="43.52259" lon="6.32282">
        <ele>374.7</ele>
        <time>2016-12-11T13:00:57Z</time>
      </trkpt>
      <trkpt lat="43.52249" lon="6.32287">
        <ele>374.5</ele>
        <time>2016-12-11T13:01:05Z</time>
      </trkpt>
      <trkpt lat="43.5224" lon="6.32293">
        <ele>374.3</ele>
        <time>2016-12-11T13:01:14Z</time>
      </trkpt>
      <trkpt lat="43.52231" lon="6.32298">
        <ele>374.2</ele>
        <time>2016-12-11T13:01:22Z</time>
      </trkpt>
      <trkpt lat="43.52222" lon="6.32305">
        <ele>374.1</ele>
        <time>2016-12-11T13:01:28Z</time>
      </trkpt>
      <trkpt lat="43.52214" lon="6.32312">
        <ele>374</ele>
        <time>2016-12-11T13:01:34Z</time>
      </trkpt>
      <trkpt lat="43.52206" lon="6.32318">
        <ele>373.8</ele>
        <time>2016-12-11T13:01:42Z</time>
      </trkpt>
      <trkpt lat="43.52199" lon="6.32327">
        <ele>373.6</ele>
        <time>2016-12-11T13:01:52Z</time>
      </trkpt>
      <trkpt lat="43.52191" lon="6.32335">
        <ele>373.3</ele>
        <time>2016-12-11T13:02:01Z</time>
      </trkpt>
      <trkpt lat="43.52181" lon="6.3234">
        <ele>372.9</ele>
        <time>2016-12-11T13:02:09Z</time>
      </trkpt>
      <trkpt lat="43.52175" lon="6.32349">
        <ele>372.4</ele>
        <time>2016-12-11T13:02:17Z</time>
      </trkpt>
      <trkpt lat="43.52169" lon="6.3236">
        <ele>372</ele>
        <time>2016-12-11T13:02:27Z</time>
      </trkpt>
      <trkpt lat="43.52162" lon="6.32367">
        <ele>371.8</ele>
        <time>2016-12-11T13:02:35Z</time>
      </trkpt>
      <trkpt lat="43.52154" lon="6.32375">
        <ele>371.6</ele>
        <time>2016-12-11T13:02:41Z</time>
      </trkpt>
      <trkpt lat="43.52145" lon="6.3238">
        <ele>371.5</ele>
        <time>2016-12-11T13:02:48Z</time>
      </trkpt>
      <trkpt lat="43.52137" lon="6.32389">
        <ele>371.3</ele>
        <time>2016-12-11T13:02:56Z</time>
      </trkpt>
      <trkpt lat="43.52132" lon="6.324">
        <ele>371.1</ele>
        <time>2016-12-11T13:03:04Z</time>
      </trkpt>
      <trkpt lat="43.52125" lon="6.32408">
        <ele>370.8</ele>
        <time>2016-12-11T13:03:12Z</time>
      </trkpt>
      <trkpt lat="43.52117" lon="6.32417">
        <ele>370.5</ele>
        <time>2016-12-11T13:03:20Z</time>
      </trkpt>
      <trkpt lat="43.5211" lon="6.32427">
        <ele>370.5</ele>
        <time>2016-12-11T13:03:25Z</time>
      </trkpt>
      <trkpt lat="43.52103" lon="6.32436">
        <ele>370.3</ele>
        <time>2016-12-11T13:03:33Z</time>
      </trkpt>
      <trkpt lat="43.52095" lon="6.32443">
        <ele>370</ele>
        <time>2016-12-11T13:03:41Z</time>
      </trkpt>
      <trkpt lat="43.52085" lon="6.32448">
        <ele>369.8</ele>
        <time>2016-12-11T13:03:49Z</time>
      </trkpt>
      <trkpt lat="43.52076" lon="6.32453">
        <ele>369.1</ele>
        <time>2016-12-11T13:03:58Z</time>
      </trkpt>
      <trkpt lat="43.52068" lon="6.32459">
        <ele>368.6</ele>
        <time>2016-12-11T13:04:05Z</time>
      </trkpt>
      <trkpt lat="43.52059" lon="6.32464">
        <ele>368</ele>
        <time>2016-12-11T13:04:16Z</time>
      </trkpt>
      <trkpt lat="43.52052" lon="6.32473">
        <ele>367.2</ele>
        <time>2016-12-11T13:04:30Z</time>
      </trkpt>
      <trkpt lat="43.52047" lon="6.32484">
        <ele>366.8</ele>
        <time>2016-12-11T13:04:40Z</time>
      </trkpt>
      <trkpt lat="43.52039" lon="6.3249">
        <ele>366.2</ele>
        <time>2016-12-11T13:04:58Z</time>
      </trkpt>
      <trkpt lat="43.5203" lon="6.3249">
        <ele>365.6</ele>
        <time>2016-12-11T13:05:09Z</time>
      </trkpt>
      <trkpt lat="43.5202" lon="6.3249">
        <ele>365.2</ele>
        <time>2016-12-11T13:05:16Z</time>
      </trkpt>
      <trkpt lat="43.5201" lon="6.32489">
        <ele>364.9</ele>
        <time>2016-12-11T13:05:23Z</time>
      </trkpt>
      <trkpt lat="43.52001" lon="6.32487">
        <ele>364.5</ele>
        <time>2016-12-11T13:05:31Z</time>
      </trkpt>
      <trkpt lat="43.51992" lon="6.32482">
        <ele>363.9</ele>
        <time>2016-12-11T13:05:40Z</time>
      </trkpt>
      <trkpt lat="43.51983" lon="6.3248">
        <ele>363.2</ele>
        <time>2016-12-11T13:05:49Z</time>
      </trkpt>
      <trkpt lat="43.51973" lon="6.32479">
        <ele>362.7</ele>
        <time>2016-12-11T13:05:56Z</time>
      </trkpt>
      <trkpt lat="43.51965" lon="6.32474">
        <ele>362.1</ele>
        <time>2016-12-11T13:06:04Z</time>
      </trkpt>
      <trkpt lat="43.51956" lon="6.32475">
        <ele>361.5</ele>
        <time>2016-12-11T13:06:13Z</time>
      </trkpt>
      <trkpt lat="43.51946" lon="6.32476">
        <ele>359.8</ele>
        <time>2016-12-11T13:06:40Z</time>
      </trkpt>
      <trkpt lat="43.51937" lon="6.32471">
        <ele>359.4</ele>
        <time>2016-12-11T13:06:48Z</time>
      </trkpt>
      <trkpt lat="43.51928" lon="6.32471">
        <ele>358.8</ele>
        <time>2016-12-11T13:06:57Z</time>
      </trkpt>
      <trkpt lat="43.51919" lon="6.32473">
        <ele>358.3</ele>
        <time>2016-12-11T13:07:04Z</time>
      </trkpt>
      <trkpt lat="43.51909" lon="6.32472">
        <ele>357</ele>
        <time>2016-12-11T13:07:14Z</time>
      </trkpt>
      <trkpt lat="43.51899" lon="6.32468">
        <ele>356.4</ele>
        <time>2016-12-11T13:07:22Z</time>
      </trkpt>
      <trkpt lat="43.51889" lon="6.32468">
        <ele>355.9</ele>
        <time>2016-12-11T13:07:31Z</time>
      </trkpt>
      <trkpt lat="43.5188" lon="6.32467">
        <ele>355.3</ele>
        <time>2016-12-11T13:07:40Z</time>
      </trkpt>
      <trkpt lat="43.5187" lon="6.32465">
        <ele>354.8</ele>
        <time>2016-12-11T13:07:48Z</time>
      </trkpt>
      <trkpt lat="43.51862" lon="6.32462">
        <ele>353.9</ele>
        <time>2016-12-11T13:08:08Z</time>
      </trkpt>
      <trkpt lat="43.51852" lon="6.3246">
        <ele>353.2</ele>
        <time>2016-12-11T13:08:19Z</time>
      </trkpt>
      <trkpt lat="43.51843" lon="6.32458">
        <ele>352.6</ele>
        <time>2016-12-11T13:08:27Z</time>
      </trkpt>
      <trkpt lat="43.51833" lon="6.32459">
        <ele>352</ele>
        <time>2016-12-11T13:08:37Z</time>
      </trkpt>
      <trkpt lat="43.51824" lon="6.32457">
        <ele>351.4</ele>
        <time>2016-12-11T13:08:43Z</time>
      </trkpt>
      <trkpt lat="43.51815" lon="6.32456">
        <ele>350.8</ele>
        <time>2016-12-11T13:08:49Z</time>
      </trkpt>
      <trkpt lat="43.51807" lon="6.32463">
        <ele>350.2</ele>
        <time>2016-12-11T13:08:56Z</time>
      </trkpt>
      <trkpt lat="43.51804" lon="6.32475">
        <ele>349.7</ele>
        <time>2016-12-11T13:09:05Z</time>
      </trkpt>
      <trkpt lat="43.518" lon="6.32489">
        <ele>349.3</ele>
        <time>2016-12-11T13:09:13Z</time>
      </trkpt>
      <trkpt lat="43.51798" lon="6.32502">
        <ele>348.9</ele>
        <time>2016-12-11T13:09:20Z</time>
      </trkpt>
      <trkpt lat="43.51796" lon="6.32515">
        <ele>348.4</ele>
        <time>2016-12-11T13:09:27Z</time>
      </trkpt>
      <trkpt lat="43.51791" lon="6.32526">
        <ele>347.5</ele>
        <time>2016-12-11T13:09:34Z</time>
      </trkpt>
      <trkpt lat="43.51787" lon="6.32538">
        <ele>346.5</ele>
        <time>2016-12-11T13:09:43Z</time>
      </trkpt>
      <trkpt lat="43.51785" lon="6.32551">
        <ele>345.6</ele>
        <time>2016-12-11T13:09:50Z</time>
      </trkpt>
      <trkpt lat="43.51783" lon="6.32565">
        <ele>344.6</ele>
        <time>2016-12-11T13:09:58Z</time>
      </trkpt>
      <trkpt lat="43.51781" lon="6.32577">
        <ele>343.6</ele>
        <time>2016-12-11T13:10:06Z</time>
      </trkpt>
      <trkpt lat="43.51775" lon="6.32588">
        <ele>342.1</ele>
        <time>2016-12-11T13:10:15Z</time>
      </trkpt>
      <trkpt lat="43.51767" lon="6.32597">
        <ele>340.7</ele>
        <time>2016-12-11T13:10:24Z</time>
      </trkpt>
      <trkpt lat="43.5176" lon="6.32605">
        <ele>339.6</ele>
        <time>2016-12-11T13:10:32Z</time>
      </trkpt>
      <trkpt lat="43.51753" lon="6.32613">
        <ele>338.6</ele>
        <time>2016-12-11T13:10:40Z</time>
      </trkpt>
      <trkpt lat="43.51745" lon="6.32621">
        <ele>337.6</ele>
        <time>2016-12-11T13:10:48Z</time>
      </trkpt>
      <trkpt lat="43.51738" lon="6.32629">
        <ele>336.4</ele>
        <time>2016-12-11T13:10:56Z</time>
      </trkpt>
      <trkpt lat="43.51731" lon="6.32636">
        <ele>334.9</ele>
        <time>2016-12-11T13:11:12Z</time>
      </trkpt>
      <trkpt lat="43.51727" lon="6.32648">
        <ele>334.3</ele>
        <time>2016-12-11T13:11:30Z</time>
      </trkpt>
      <trkpt lat="43.51718" lon="6.3265">
        <ele>333.7</ele>
        <time>2016-12-11T13:13:58Z</time>
      </trkpt>
      <trkpt lat="43.51719" lon="6.32637">
        <ele>333.5</ele>
        <time>2016-12-11T13:14:40Z</time>
      </trkpt>
      <trkpt lat="43.51712" lon="6.32628">
        <ele>333.4</ele>
        <time>2016-12-11T13:14:52Z</time>
      </trkpt>
      <trkpt lat="43.51707" lon="6.32618">
        <ele>333</ele>
        <time>2016-12-11T13:14:59Z</time>
      </trkpt>
      <trkpt lat="43.51702" lon="6.32605">
        <ele>332.6</ele>
        <time>2016-12-11T13:15:08Z</time>
      </trkpt>
      <trkpt lat="43.51698" lon="6.32594">
        <ele>332.2</ele>
        <time>2016-12-11T13:15:16Z</time>
      </trkpt>
      <trkpt lat="43.51692" lon="6.32582">
        <ele>331.9</ele>
        <time>2016-12-11T13:15:25Z</time>
      </trkpt>
      <trkpt lat="43.51684" lon="6.32575">
        <ele>331.6</ele>
        <time>2016-12-11T13:15:33Z</time>
      </trkpt>
      <trkpt lat="43.51678" lon="6.32566">
        <ele>331.4</ele>
        <time>2016-12-11T13:15:40Z</time>
      </trkpt>
      <trkpt lat="43.51669" lon="6.32562">
        <ele>331.1</ele>
        <time>2016-12-11T13:15:52Z</time>
      </trkpt>
      <trkpt lat="43.5166" lon="6.32558">
        <ele>330.9</ele>
        <time>2016-12-11T13:15:59Z</time>
      </trkpt>
      <trkpt lat="43.51651" lon="6.32556">
        <ele>330.7</ele>
        <time>2016-12-11T13:16:06Z</time>
      </trkpt>
      <trkpt lat="43.51642" lon="6.32554">
        <ele>330.6</ele>
        <time>2016-12-11T13:16:15Z</time>
      </trkpt>
      <trkpt lat="43.51633" lon="6.32548">
        <ele>330.6</ele>
        <time>2016-12-11T13:16:24Z</time>
      </trkpt>
      <trkpt lat="43.51624" lon="6.32542">
        <ele>330.5</ele>
        <time>2016-12-11T13:16:32Z</time>
      </trkpt>
      <trkpt lat="43.51615" lon="6.32538">
        <ele>330.5</ele>
        <time>2016-12-11T13:16:42Z</time>
      </trkpt>
      <trkpt lat="43.51606" lon="6.32537">
        <ele>330.5</ele>
        <time>2016-12-11T13:16:50Z</time>
      </trkpt>
      <trkpt lat="43.51598" lon="6.32533">
        <ele>330.2</ele>
        <time>2016-12-11T13:17:02Z</time>
      </trkpt>
      <trkpt lat="43.51588" lon="6.32532">
        <ele>329.5</ele>
        <time>2016-12-11T13:17:13Z</time>
      </trkpt>
      <trkpt lat="43.51579" lon="6.32528">
        <ele>328.7</ele>
        <time>2016-12-11T13:17:21Z</time>
      </trkpt>
      <trkpt lat="43.5157" lon="6.32525">
        <ele>328.1</ele>
        <time>2016-12-11T13:17:31Z</time>
      </trkpt>
      <trkpt lat="43.51561" lon="6.32525">
        <ele>327.4</ele>
        <time>2016-12-11T13:17:42Z</time>
      </trkpt>
      <trkpt lat="43.51551" lon="6.32524">
        <ele>326.9</ele>
        <time>2016-12-11T13:17:53Z</time>
      </trkpt>
      <trkpt lat="43.51542" lon="6.32526">
        <ele>326.3</ele>
        <time>2016-12-11T13:18:12Z</time>
      </trkpt>
      <trkpt lat="43.51533" lon="6.32527">
        <ele>325.9</ele>
        <time>2016-12-11T13:18:35Z</time>
      </trkpt>
      <trkpt lat="43.51524" lon="6.32525">
        <ele>325.5</ele>
        <time>2016-12-11T13:19:00Z</time>
      </trkpt>
      <trkpt lat="43.51516" lon="6.32532">
        <ele>325</ele>
        <time>2016-12-11T13:19:18Z</time>
      </trkpt>
      <trkpt lat="43.51508" lon="6.32538">
        <ele>324.3</ele>
        <time>2016-12-11T13:19:28Z</time>
      </trkpt>
      <trkpt lat="43.51499" lon="6.32544">
        <ele>324</ele>
        <time>2016-12-11T13:19:35Z</time>
      </trkpt>
      <trkpt lat="43.5149" lon="6.32549">
        <ele>323</ele>
        <time>2016-12-11T13:19:46Z</time>
      </trkpt>
      <trkpt lat="43.51481" lon="6.32554">
        <ele>322.2</ele>
        <time>2016-12-11T13:19:53Z</time>
      </trkpt>
      <trkpt lat="43.51472" lon="6.32556">
        <ele>321.3</ele>
        <time>2016-12-11T13:20:03Z</time>
      </trkpt>
      <trkpt lat="43.51462" lon="6.32557">
        <ele>320.6</ele>
        <time>2016-12-11T13:20:12Z</time>
      </trkpt>
      <trkpt lat="43.51454" lon="6.32552">
        <ele>319.8</ele>
        <time>2016-12-11T13:20:21Z</time>
      </trkpt>
      <trkpt lat="43.51445" lon="6.32547">
        <ele>319.1</ele>
        <time>2016-12-11T13:20:31Z</time>
      </trkpt>
      <trkpt lat="43.51436" lon="6.32545">
        <ele>318.6</ele>
        <time>2016-12-11T13:20:41Z</time>
      </trkpt>
      <trkpt lat="43.51426" lon="6.32542">
        <ele>318</ele>
        <time>2016-12-11T13:20:49Z</time>
      </trkpt>
      <trkpt lat="43.51417" lon="6.32542">
        <ele>317.3</ele>
        <time>2016-12-11T13:20:59Z</time>
      </trkpt>
      <trkpt lat="43.51407" lon="6.3254">
        <ele>316.7</ele>
        <time>2016-12-11T13:21:08Z</time>
      </trkpt>
      <trkpt lat="43.51398" lon="6.32537">
        <ele>315.6</ele>
        <time>2016-12-11T13:21:21Z</time>
      </trkpt>
      <trkpt lat="43.51388" lon="6.32535">
        <ele>314.9</ele>
        <time>2016-12-11T13:21:30Z</time>
      </trkpt>
      <trkpt lat="43.51379" lon="6.32531">
        <ele>314.5</ele>
        <time>2016-12-11T13:21:39Z</time>
      </trkpt>
      <trkpt lat="43.51369" lon="6.32528">
        <ele>313.9</ele>
        <time>2016-12-11T13:21:46Z</time>
      </trkpt>
      <trkpt lat="43.5136" lon="6.32526">
        <ele>313.5</ele>
        <time>2016-12-11T13:21:54Z</time>
      </trkpt>
      <trkpt lat="43.51351" lon="6.3252">
        <ele>313.1</ele>
        <time>2016-12-11T13:22:02Z</time>
      </trkpt>
      <trkpt lat="43.51342" lon="6.32514">
        <ele>312.1</ele>
        <time>2016-12-11T13:22:31Z</time>
      </trkpt>
      <trkpt lat="43.51344" lon="6.32501">
        <ele>311.6</ele>
        <time>2016-12-11T13:24:31Z</time>
      </trkpt>
      <trkpt lat="43.51341" lon="6.32489">
        <ele>311</ele>
        <time>2016-12-11T13:24:41Z</time>
      </trkpt>
      <trkpt lat="43.51338" lon="6.32476">
        <ele>310.4</ele>
        <time>2016-12-11T13:24:52Z</time>
      </trkpt>
      <trkpt lat="43.51336" lon="6.32462">
        <ele>309.6</ele>
        <time>2016-12-11T13:25:04Z</time>
      </trkpt>
      <trkpt lat="43.51334" lon="6.3245">
        <ele>309.2</ele>
        <time>2016-12-11T13:25:13Z</time>
      </trkpt>
      <trkpt lat="43.5133" lon="6.32437">
        <ele>308.7</ele>
        <time>2016-12-11T13:25:24Z</time>
      </trkpt>
      <trkpt lat="43.51331" lon="6.32424">
        <ele>308.4</ele>
        <time>2016-12-11T13:25:33Z</time>
      </trkpt>
      <trkpt lat="43.51328" lon="6.32411">
        <ele>308.4</ele>
        <time>2016-12-11T13:25:45Z</time>
      </trkpt>
      <trkpt lat="43.51322" lon="6.32399">
        <ele>308.6</ele>
        <time>2016-12-11T13:25:56Z</time>
      </trkpt>
      <trkpt lat="43.51321" lon="6.32386">
        <ele>308.7</ele>
        <time>2016-12-11T13:26:04Z</time>
      </trkpt>
      <trkpt lat="43.5132" lon="6.32372">
        <ele>308.9</ele>
        <time>2016-12-11T13:26:13Z</time>
      </trkpt>
      <trkpt lat="43.51319" lon="6.3236">
        <ele>309</ele>
        <time>2016-12-11T13:26:22Z</time>
      </trkpt>
      <trkpt lat="43.51318" lon="6.32347">
        <ele>309.1</ele>
        <time>2016-12-11T13:26:30Z</time>
      </trkpt>
      <trkpt lat="43.51316" lon="6.32334">
        <ele>309.5</ele>
        <time>2016-12-11T13:26:40Z</time>
      </trkpt>
      <trkpt lat="43.51312" lon="6.32323">
        <ele>310.2</ele>
        <time>2016-12-11T13:26:50Z</time>
      </trkpt>
      <trkpt lat="43.51312" lon="6.3231">
        <ele>310.8</ele>
        <time>2016-12-11T13:26:58Z</time>
      </trkpt>
      <trkpt lat="43.51309" lon="6.32298">
        <ele>311.3</ele>
        <time>2016-12-11T13:27:05Z</time>
      </trkpt>
      <trkpt lat="43.51306" lon="6.32286">
        <ele>311.8</ele>
        <time>2016-12-11T13:27:14Z</time>
      </trkpt>
      <trkpt lat="43.51303" lon="6.32273">
        <ele>312.2</ele>
        <time>2016-12-11T13:27:22Z</time>
      </trkpt>
      <trkpt lat="43.51303" lon="6.3226">
        <ele>312.4</ele>
        <time>2016-12-11T13:27:29Z</time>
      </trkpt>
      <trkpt lat="43.513" lon="6.32247">
        <ele>312.1</ele>
        <time>2016-12-11T13:27:39Z</time>
      </trkpt>
      <trkpt lat="43.51298" lon="6.32234">
        <ele>312.1</ele>
        <time>2016-12-11T13:27:49Z</time>
      </trkpt>
      <trkpt lat="43.51295" lon="6.32222">
        <ele>312.4</ele>
        <time>2016-12-11T13:28:00Z</time>
      </trkpt>
      <trkpt lat="43.51294" lon="6.32209">
        <ele>312.9</ele>
        <time>2016-12-11T13:28:09Z</time>
      </trkpt>
      <trkpt lat="43.51294" lon="6.32196">
        <ele>313.5</ele>
        <time>2016-12-11T13:28:19Z</time>
      </trkpt>
      <trkpt lat="43.51291" lon="6.32183">
        <ele>314.1</ele>
        <time>2016-12-11T13:28:30Z</time>
      </trkpt>
      <trkpt lat="43.5129" lon="6.3217">
        <ele>314.5</ele>
        <time>2016-12-11T13:28:38Z</time>
      </trkpt>
      <trkpt lat="43.51289" lon="6.32157">
        <ele>314.9</ele>
        <time>2016-12-11T13:28:54Z</time>
      </trkpt>
      <trkpt lat="43.51281" lon="6.32151">
        <ele>315.4</ele>
        <time>2016-12-11T13:29:25Z</time>
      </trkpt>
      <trkpt lat="43.51273" lon="6.32158">
        <ele>315.7</ele>
        <time>2016-12-11T13:29:39Z</time>
      </trkpt>
      <trkpt lat="43.51264" lon="6.32153">
        <ele>315.3</ele>
        <time>2016-12-11T13:29:56Z</time>
      </trkpt>
      <trkpt lat="43.51254" lon="6.32154">
        <ele>314.8</ele>
        <time>2016-12-11T13:30:06Z</time>
      </trkpt>
      <trkpt lat="43.51245" lon="6.32154">
        <ele>314</ele>
        <time>2016-12-11T13:30:16Z</time>
      </trkpt>
      <trkpt lat="43.51235" lon="6.32157">
        <ele>313.1</ele>
        <time>2016-12-11T13:30:27Z</time>
      </trkpt>
      <trkpt lat="43.51226" lon="6.32156">
        <ele>312.4</ele>
        <time>2016-12-11T13:30:35Z</time>
      </trkpt>
      <trkpt lat="43.51217" lon="6.32161">
        <ele>311.6</ele>
        <time>2016-12-11T13:30:46Z</time>
      </trkpt>
      <trkpt lat="43.51209" lon="6.32157">
        <ele>310.6</ele>
        <time>2016-12-11T13:30:57Z</time>
      </trkpt>
      <trkpt lat="43.51201" lon="6.32165">
        <ele>309.5</ele>
        <time>2016-12-11T13:31:08Z</time>
      </trkpt>
      <trkpt lat="43.51191" lon="6.32164">
        <ele>308.2</ele>
        <time>2016-12-11T13:31:19Z</time>
      </trkpt>
      <trkpt lat="43.51182" lon="6.32165">
        <ele>307.2</ele>
        <time>2016-12-11T13:31:29Z</time>
      </trkpt>
      <trkpt lat="43.51171" lon="6.32164">
        <ele>306.3</ele>
        <time>2016-12-11T13:31:36Z</time>
      </trkpt>
      <trkpt lat="43.51162" lon="6.32163">
        <ele>304.4</ele>
        <time>2016-12-11T13:31:55Z</time>
      </trkpt>
      <trkpt lat="43.51154" lon="6.32167">
        <ele>303.7</ele>
        <time>2016-12-11T13:32:25Z</time>
      </trkpt>
      <trkpt lat="43.51145" lon="6.32171">
        <ele>303.2</ele>
        <time>2016-12-11T13:33:44Z</time>
      </trkpt>
      <trkpt lat="43.51135" lon="6.32172">
        <ele>302.8</ele>
        <time>2016-12-11T13:33:55Z</time>
      </trkpt>
      <trkpt lat="43.51126" lon="6.32175">
        <ele>302.4</ele>
        <time>2016-12-11T13:34:05Z</time>
      </trkpt>
      <trkpt lat="43.51117" lon="6.32178">
        <ele>302</ele>
        <time>2016-12-11T13:34:18Z</time>
      </trkpt>
      <trkpt lat="43.51107" lon="6.32177">
        <ele>301.4</ele>
        <time>2016-12-11T13:34:32Z</time>
      </trkpt>
      <trkpt lat="43.51099" lon="6.32173">
        <ele>301.3</ele>
        <time>2016-12-11T13:34:45Z</time>
      </trkpt>
      <trkpt lat="43.51091" lon="6.32166">
        <ele>301.6</ele>
        <time>2016-12-11T13:34:55Z</time>
      </trkpt>
      <trkpt lat="43.51084" lon="6.32158">
        <ele>301.9</ele>
        <time>2016-12-11T13:35:05Z</time>
      </trkpt>
      <trkpt lat="43.51081" lon="6.32146">
        <ele>302.1</ele>
        <time>2016-12-11T13:35:16Z</time>
      </trkpt>
      <trkpt lat="43.51075" lon="6.32136">
        <ele>302.4</ele>
        <time>2016-12-11T13:35:27Z</time>
      </trkpt>
      <trkpt lat="43.51067" lon="6.32129">
        <ele>302.8</ele>
        <time>2016-12-11T13:35:38Z</time>
      </trkpt>
      <trkpt lat="43.51065" lon="6.32115">
        <ele>302.9</ele>
        <time>2016-12-11T13:35:51Z</time>
      </trkpt>
      <trkpt lat="43.51062" lon="6.32103">
        <ele>303</ele>
        <time>2016-12-11T13:36:01Z</time>
      </trkpt>
      <trkpt lat="43.51056" lon="6.32092">
        <ele>303.3</ele>
        <time>2016-12-11T13:36:11Z</time>
      </trkpt>
      <trkpt lat="43.5105" lon="6.32081">
        <ele>303.4</ele>
        <time>2016-12-11T13:36:18Z</time>
      </trkpt>
      <trkpt lat="43.51044" lon="6.32072">
        <ele>303.5</ele>
        <time>2016-12-11T13:36:26Z</time>
      </trkpt>
      <trkpt lat="43.51037" lon="6.32062">
        <ele>303.5</ele>
        <time>2016-12-11T13:36:34Z</time>
      </trkpt>
      <trkpt lat="43.51037" lon="6.32049">
        <ele>303.4</ele>
        <time>2016-12-11T13:36:44Z</time>
      </trkpt>
      <trkpt lat="43.51033" lon="6.32036">
        <ele>303.2</ele>
        <time>2016-12-11T13:36:52Z</time>
      </trkpt>
      <trkpt lat="43.51029" lon="6.32022">
        <ele>302.8</ele>
        <time>2016-12-11T13:37:00Z</time>
      </trkpt>
      <trkpt lat="43.51025" lon="6.3201">
        <ele>302.2</ele>
        <time>2016-12-11T13:37:09Z</time>
      </trkpt>
      <trkpt lat="43.5102" lon="6.31998">
        <ele>301.8</ele>
        <time>2016-12-11T13:37:18Z</time>
      </trkpt>
      <trkpt lat="43.51016" lon="6.31987">
        <ele>301.4</ele>
        <time>2016-12-11T13:37:27Z</time>
      </trkpt>
      <trkpt lat="43.51008" lon="6.31978">
        <ele>300.9</ele>
        <time>2016-12-11T13:37:37Z</time>
      </trkpt>
      <trkpt lat="43.51004" lon="6.31966">
        <ele>300.7</ele>
        <time>2016-12-11T13:37:44Z</time>
      </trkpt>
      <trkpt lat="43.51" lon="6.31955">
        <ele>300.5</ele>
        <time>2016-12-11T13:37:56Z</time>
      </trkpt>
      <trkpt lat="43.50996" lon="6.31943">
        <ele>300.5</ele>
        <time>2016-12-11T13:38:04Z</time>
      </trkpt>
      <trkpt lat="43.50995" lon="6.3193">
        <ele>300.4</ele>
        <time>2016-12-11T13:38:11Z</time>
      </trkpt>
      <trkpt lat="43.50991" lon="6.31918">
        <ele>300.4</ele>
        <time>2016-12-11T13:38:33Z</time>
      </trkpt>
      <trkpt lat="43.50993" lon="6.31904">
        <ele>300.6</ele>
        <time>2016-12-11T13:38:47Z</time>
      </trkpt>
      <trkpt lat="43.50995" lon="6.3189">
        <ele>301</ele>
        <time>2016-12-11T13:38:56Z</time>
      </trkpt>
      <trkpt lat="43.50998" lon="6.31877">
        <ele>301.3</ele>
        <time>2016-12-11T13:39:04Z</time>
      </trkpt>
      <trkpt lat="43.51001" lon="6.31865">
        <ele>301.4</ele>
        <time>2016-12-11T13:39:12Z</time>
      </trkpt>
      <trkpt lat="43.51003" lon="6.31852">
        <ele>301.5</ele>
        <time>2016-12-11T13:39:20Z</time>
      </trkpt>
      <trkpt lat="43.51004" lon="6.31839">
        <ele>301.6</ele>
        <time>2016-12-11T13:39:28Z</time>
      </trkpt>
      <trkpt lat="43.51003" lon="6.31826">
        <ele>301.7</ele>
        <time>2016-12-11T13:39:41Z</time>
      </trkpt>
      <trkpt lat="43.51004" lon="6.31813">
        <ele>301.7</ele>
        <time>2016-12-11T13:39:46Z</time>
      </trkpt>
      <trkpt lat="43.51005" lon="6.318">
        <ele>301.6</ele>
        <time>2016-12-11T13:39:53Z</time>
      </trkpt>
      <trkpt lat="43.5101" lon="6.31789">
        <ele>301.4</ele>
        <time>2016-12-11T13:40:00Z</time>
      </trkpt>
      <trkpt lat="43.5101" lon="6.31775">
        <ele>301.1</ele>
        <time>2016-12-11T13:40:07Z</time>
      </trkpt>
      <trkpt lat="43.51008" lon="6.31762">
        <ele>300.9</ele>
        <time>2016-12-11T13:40:15Z</time>
      </trkpt>
      <trkpt lat="43.51009" lon="6.31749">
        <ele>300.4</ele>
        <time>2016-12-11T13:40:23Z</time>
      </trkpt>
      <trkpt lat="43.51011" lon="6.31736">
        <ele>300.1</ele>
        <time>2016-12-11T13:40:31Z</time>
      </trkpt>
      <trkpt lat="43.5101" lon="6.31723">
        <ele>299.5</ele>
        <time>2016-12-11T13:40:42Z</time>
      </trkpt>
      <trkpt lat="43.51007" lon="6.3171">
        <ele>298.8</ele>
        <time>2016-12-11T13:40:51Z</time>
      </trkpt>
      <trkpt lat="43.51004" lon="6.31697">
        <ele>298.4</ele>
        <time>2016-12-11T13:40:57Z</time>
      </trkpt>
      <trkpt lat="43.51001" lon="6.31685">
        <ele>297.9</ele>
        <time>2016-12-11T13:41:06Z</time>
      </trkpt>
      <trkpt lat="43.51" lon="6.31671">
        <ele>297.8</ele>
        <time>2016-12-11T13:41:14Z</time>
      </trkpt>
      <trkpt lat="43.50997" lon="6.31658">
        <ele>297.7</ele>
        <time>2016-12-11T13:41:23Z</time>
      </trkpt>
      <trkpt lat="43.50996" lon="6.31644">
        <ele>297.5</ele>
        <time>2016-12-11T13:41:31Z</time>
      </trkpt>
      <trkpt lat="43.50994" lon="6.3163">
        <ele>297</ele>
        <time>2016-12-11T13:41:39Z</time>
      </trkpt>
      <trkpt lat="43.5099" lon="6.31618">
        <ele>296.3</ele>
        <time>2016-12-11T13:41:47Z</time>
      </trkpt>
      <trkpt lat="43.50987" lon="6.31605">
        <ele>295.5</ele>
        <time>2016-12-11T13:41:56Z</time>
      </trkpt>
      <trkpt lat="43.50987" lon="6.31592">
        <ele>294.7</ele>
        <time>2016-12-11T13:42:05Z</time>
      </trkpt>
      <trkpt lat="43.50985" lon="6.31579">
        <ele>293.6</ele>
        <time>2016-12-11T13:42:15Z</time>
      </trkpt>
      <trkpt lat="43.50982" lon="6.31567">
        <ele>292.7</ele>
        <time>2016-12-11T13:42:26Z</time>
      </trkpt>
      <trkpt lat="43.5098" lon="6.31555">
        <ele>292.4</ele>
        <time>2016-12-11T13:42:33Z</time>
      </trkpt>
      <trkpt lat="43.50979" lon="6.31542">
        <ele>292.1</ele>
        <time>2016-12-11T13:42:40Z</time>
      </trkpt>
      <trkpt lat="43.50977" lon="6.31528">
        <ele>292.1</ele>
        <time>2016-12-11T13:42:50Z</time>
      </trkpt>
      <trkpt lat="43.50972" lon="6.31517">
        <ele>292.1</ele>
        <time>2016-12-11T13:42:57Z</time>
      </trkpt>
      <trkpt lat="43.50968" lon="6.31505">
        <ele>292</ele>
        <time>2016-12-11T13:43:04Z</time>
      </trkpt>
      <trkpt lat="43.50965" lon="6.31493">
        <ele>292</ele>
        <time>2016-12-11T13:43:12Z</time>
      </trkpt>
      <trkpt lat="43.5096" lon="6.31481">
        <ele>291.6</ele>
        <time>2016-12-11T13:43:22Z</time>
      </trkpt>
      <trkpt lat="43.50956" lon="6.31469">
        <ele>291.2</ele>
        <time>2016-12-11T13:43:31Z</time>
      </trkpt>
      <trkpt lat="43.50953" lon="6.31457">
        <ele>290.9</ele>
        <time>2016-12-11T13:43:43Z</time>
      </trkpt>
      <trkpt lat="43.50944" lon="6.31454">
        <ele>290.7</ele>
        <time>2016-12-11T13:44:15Z</time>
      </trkpt>
      <trkpt lat="43.50952" lon="6.31447">
        <ele>290.7</ele>
        <time>2016-12-11T13:44:56Z</time>
      </trkpt>
      <trkpt lat="43.50961" lon="6.31443">
        <ele>290.7</ele>
        <time>2016-12-11T13:45:07Z</time>
      </trkpt>
      <trkpt lat="43.50968" lon="6.31434">
        <ele>290.7</ele>
        <time>2016-12-11T13:45:14Z</time>
      </trkpt>
      <trkpt lat="43.50974" lon="6.31423">
        <ele>290.7</ele>
        <time>2016-12-11T13:45:22Z</time>
      </trkpt>
      <trkpt lat="43.50979" lon="6.31413">
        <ele>290.7</ele>
        <time>2016-12-11T13:45:31Z</time>
      </trkpt>
      <trkpt lat="43.50985" lon="6.31402">
        <ele>290.7</ele>
        <time>2016-12-11T13:45:40Z</time>
      </trkpt>
      <trkpt lat="43.50989" lon="6.31391">
        <ele>290.7</ele>
        <time>2016-12-11T13:45:52Z</time>
      </trkpt>
      <trkpt lat="43.50994" lon="6.31381">
        <ele>290.7</ele>
        <time>2016-12-11T13:46:00Z</time>
      </trkpt>
      <trkpt lat="43.50997" lon="6.31368">
        <ele>290.7</ele>
        <time>2016-12-11T13:46:11Z</time>
      </trkpt>
      <trkpt lat="43.51001" lon="6.31356">
        <ele>290.8</ele>
        <time>2016-12-11T13:46:17Z</time>
      </trkpt>
      <trkpt lat="43.51004" lon="6.31343">
        <ele>290.6</ele>
        <time>2016-12-11T13:46:29Z</time>
      </trkpt>
      <trkpt lat="43.51009" lon="6.31332">
        <ele>290.6</ele>
        <time>2016-12-11T13:46:41Z</time>
      </trkpt>
      <trkpt lat="43.51012" lon="6.3132">
        <ele>290.5</ele>
        <time>2016-12-11T13:46:52Z</time>
      </trkpt>
      <trkpt lat="43.51017" lon="6.3131">
        <ele>290.6</ele>
        <time>2016-12-11T13:46:59Z</time>
      </trkpt>
      <trkpt lat="43.51023" lon="6.31299">
        <ele>290.6</ele>
        <time>2016-12-11T13:47:08Z</time>
      </trkpt>
      <trkpt lat="43.51028" lon="6.3131">
        <ele>290.9</ele>
        <time>2016-12-11T13:47:39Z</time>
      </trkpt>
      <trkpt lat="43.5103" lon="6.31322">
        <ele>291.1</ele>
        <time>2016-12-11T13:47:49Z</time>
      </trkpt>
      <trkpt lat="43.51039" lon="6.31329">
        <ele>291.9</ele>
        <time>2016-12-11T13:48:18Z</time>
      </trkpt>
      <trkpt lat="43.51046" lon="6.31337">
        <ele>292.2</ele>
        <time>2016-12-11T13:48:36Z</time>
      </trkpt>
      <trkpt lat="43.51047" lon="6.3135">
        <ele>291.4</ele>
        <time>2016-12-11T13:50:24Z</time>
      </trkpt>
      <trkpt lat="43.51054" lon="6.31358">
        <ele>291.6</ele>
        <time>2016-12-11T13:50:36Z</time>
      </trkpt>
      <trkpt lat="43.5106" lon="6.31368">
        <ele>291.9</ele>
        <time>2016-12-11T13:50:46Z</time>
      </trkpt>
      <trkpt lat="43.51067" lon="6.31376">
        <ele>292.6</ele>
        <time>2016-12-11T13:50:56Z</time>
      </trkpt>
      <trkpt lat="43.51074" lon="6.31385">
        <ele>293.7</ele>
        <time>2016-12-11T13:51:09Z</time>
      </trkpt>
      <trkpt lat="43.51082" lon="6.31394">
        <ele>294.6</ele>
        <time>2016-12-11T13:51:19Z</time>
      </trkpt>
      <trkpt lat="43.51089" lon="6.31404">
        <ele>295.3</ele>
        <time>2016-12-11T13:51:30Z</time>
      </trkpt>
      <trkpt lat="43.51094" lon="6.31414">
        <ele>295.7</ele>
        <time>2016-12-11T13:51:40Z</time>
      </trkpt>
      <trkpt lat="43.511" lon="6.31426">
        <ele>296.3</ele>
        <time>2016-12-11T13:51:49Z</time>
      </trkpt>
      <trkpt lat="43.51106" lon="6.31434">
        <ele>296.9</ele>
        <time>2016-12-11T13:51:59Z</time>
      </trkpt>
      <trkpt lat="43.51112" lon="6.31444">
        <ele>297.4</ele>
        <time>2016-12-11T13:52:08Z</time>
      </trkpt>
      <trkpt lat="43.51119" lon="6.31453">
        <ele>297.7</ele>
        <time>2016-12-11T13:52:18Z</time>
      </trkpt>
      <trkpt lat="43.51128" lon="6.31461">
        <ele>297.9</ele>
        <time>2016-12-11T13:52:27Z</time>
      </trkpt>
      <trkpt lat="43.51135" lon="6.31469">
        <ele>298.4</ele>
        <time>2016-12-11T13:52:37Z</time>
      </trkpt>
      <trkpt lat="43.51144" lon="6.31468">
        <ele>298.8</ele>
        <time>2016-12-11T13:52:47Z</time>
      </trkpt>
      <trkpt lat="43.51153" lon="6.31464">
        <ele>299.8</ele>
        <time>2016-12-11T13:54:01Z</time>
      </trkpt>
      <trkpt lat="43.51162" lon="6.31464">
        <ele>300</ele>
        <time>2016-12-11T13:54:15Z</time>
      </trkpt>
      <trkpt lat="43.51171" lon="6.31464">
        <ele>300.4</ele>
        <time>2016-12-11T13:54:30Z</time>
      </trkpt>
      <trkpt lat="43.5118" lon="6.31465">
        <ele>300.8</ele>
        <time>2016-12-11T13:54:49Z</time>
      </trkpt>
      <trkpt lat="43.5119" lon="6.31468">
        <ele>301.9</ele>
        <time>2016-12-11T13:55:05Z</time>
      </trkpt>
      <trkpt lat="43.51199" lon="6.31468">
        <ele>303</ele>
        <time>2016-12-11T13:55:17Z</time>
      </trkpt>
      <trkpt lat="43.51209" lon="6.31467">
        <ele>303.8</ele>
        <time>2016-12-11T13:55:27Z</time>
      </trkpt>
      <trkpt lat="43.51218" lon="6.31465">
        <ele>305.1</ele>
        <time>2016-12-11T13:55:44Z</time>
      </trkpt>
      <trkpt lat="43.51227" lon="6.31465">
        <ele>305.4</ele>
        <time>2016-12-11T13:55:53Z</time>
      </trkpt>
      <trkpt lat="43.51236" lon="6.31469">
        <ele>305.6</ele>
        <time>2016-12-11T13:56:06Z</time>
      </trkpt>
      <trkpt lat="43.51245" lon="6.31468">
        <ele>305.6</ele>
        <time>2016-12-11T13:56:13Z</time>
      </trkpt>
      <trkpt lat="43.51255" lon="6.31467">
        <ele>305.5</ele>
        <time>2016-12-11T13:56:24Z</time>
      </trkpt>
      <trkpt lat="43.51264" lon="6.31466">
        <ele>305.2</ele>
        <time>2016-12-11T13:56:32Z</time>
      </trkpt>
      <trkpt lat="43.51273" lon="6.31469">
        <ele>304.6</ele>
        <time>2016-12-11T13:56:43Z</time>
      </trkpt>
      <trkpt lat="43.51282" lon="6.31472">
        <ele>304.1</ele>
        <time>2016-12-11T13:56:53Z</time>
      </trkpt>
      <trkpt lat="43.51291" lon="6.31473">
        <ele>303.6</ele>
        <time>2016-12-11T13:57:02Z</time>
      </trkpt>
      <trkpt lat="43.51301" lon="6.31476">
        <ele>302.8</ele>
        <time>2016-12-11T13:57:15Z</time>
      </trkpt>
      <trkpt lat="43.51309" lon="6.31474">
        <ele>301.6</ele>
        <time>2016-12-11T13:57:29Z</time>
      </trkpt>
      <trkpt lat="43.51319" lon="6.31472">
        <ele>300.4</ele>
        <time>2016-12-11T13:57:43Z</time>
      </trkpt>
      <trkpt lat="43.51328" lon="6.31473">
        <ele>298.8</ele>
        <time>2016-12-11T13:58:06Z</time>
      </trkpt>
      <trkpt lat="43.51339" lon="6.31472">
        <ele>297.7</ele>
        <time>2016-12-11T13:58:18Z</time>
      </trkpt>
      <trkpt lat="43.51348" lon="6.3147">
        <ele>297.3</ele>
        <time>2016-12-11T13:58:24Z</time>
      </trkpt>
      <trkpt lat="43.51357" lon="6.31468">
        <ele>295.7</ele>
        <time>2016-12-11T13:58:40Z</time>
      </trkpt>
      <trkpt lat="43.51366" lon="6.31465">
        <ele>295.1</ele>
        <time>2016-12-11T13:58:50Z</time>
      </trkpt>
      <trkpt lat="43.51375" lon="6.31461">
        <ele>294.6</ele>
        <time>2016-12-11T13:58:59Z</time>
      </trkpt>
      <trkpt lat="43.51384" lon="6.31456">
        <ele>294</ele>
        <time>2016-12-11T13:59:09Z</time>
      </trkpt>
      <trkpt lat="43.51391" lon="6.31448">
        <ele>293.3</ele>
        <time>2016-12-11T13:59:19Z</time>
      </trkpt>
      <trkpt lat="43.51399" lon="6.31443">
        <ele>293.3</ele>
        <time>2016-12-11T13:59:30Z</time>
      </trkpt>
      <trkpt lat="43.51406" lon="6.31432">
        <ele>293.2</ele>
        <time>2016-12-11T13:59:40Z</time>
      </trkpt>
      <trkpt lat="43.51414" lon="6.31425">
        <ele>293.1</ele>
        <time>2016-12-11T13:59:47Z</time>
      </trkpt>
      <trkpt lat="43.51421" lon="6.31416">
        <ele>292.8</ele>
        <time>2016-12-11T13:59:57Z</time>
      </trkpt>
      <trkpt lat="43.51427" lon="6.31406">
        <ele>292.2</ele>
        <time>2016-12-11T14:00:13Z</time>
      </trkpt>
      <trkpt lat="43.5143" lon="6.31394">
        <ele>291.7</ele>
        <time>2016-12-11T14:00:21Z</time>
      </trkpt>
      <trkpt lat="43.51431" lon="6.31382">
        <ele>290.7</ele>
        <time>2016-12-11T14:00:32Z</time>
      </trkpt>
      <trkpt lat="43.51436" lon="6.3137">
        <ele>289.9</ele>
        <time>2016-12-11T14:00:42Z</time>
      </trkpt>
      <trkpt lat="43.51439" lon="6.31358">
        <ele>288.8</ele>
        <time>2016-12-11T14:00:54Z</time>
      </trkpt>
      <trkpt lat="43.5144" lon="6.31345">
        <ele>287.9</ele>
        <time>2016-12-11T14:01:11Z</time>
      </trkpt>
      <trkpt lat="43.51449" lon="6.31343">
        <ele>287.5</ele>
        <time>2016-12-11T14:01:22Z</time>
      </trkpt>
      <trkpt lat="43.51453" lon="6.31332">
        <ele>287</ele>
        <time>2016-12-11T14:01:31Z</time>
      </trkpt>
      <trkpt lat="43.51459" lon="6.3132">
        <ele>286.4</ele>
        <time>2016-12-11T14:01:40Z</time>
      </trkpt>
      <trkpt lat="43.51465" lon="6.3131">
        <ele>285.9</ele>
        <time>2016-12-11T14:01:51Z</time>
      </trkpt>
      <trkpt lat="43.51464" lon="6.31298">
        <ele>285.5</ele>
        <time>2016-12-11T14:02:03Z</time>
      </trkpt>
      <trkpt lat="43.5146" lon="6.31287">
        <ele>284.7</ele>
        <time>2016-12-11T14:02:19Z</time>
      </trkpt>
      <trkpt lat="43.51453" lon="6.31278">
        <ele>283.3</ele>
        <time>2016-12-11T14:02:34Z</time>
      </trkpt>
      <trkpt lat="43.51454" lon="6.31265">
        <ele>283</ele>
        <time>2016-12-11T14:02:48Z</time>
      </trkpt>
      <trkpt lat="43.51451" lon="6.31252">
        <ele>282.9</ele>
        <time>2016-12-11T14:02:57Z</time>
      </trkpt>
      <trkpt lat="43.51447" lon="6.3124">
        <ele>282.9</ele>
        <time>2016-12-11T14:03:06Z</time>
      </trkpt>
      <trkpt lat="43.51441" lon="6.3123">
        <ele>282.9</ele>
        <time>2016-12-11T14:03:14Z</time>
      </trkpt>
      <trkpt lat="43.51439" lon="6.31217">
        <ele>282.8</ele>
        <time>2016-12-11T14:03:22Z</time>
      </trkpt>
      <trkpt lat="43.5144" lon="6.31204">
        <ele>282.2</ele>
        <time>2016-12-11T14:03:31Z</time>
      </trkpt>
      <trkpt lat="43.51446" lon="6.31195">
        <ele>281.9</ele>
        <time>2016-12-11T14:03:41Z</time>
      </trkpt>
      <trkpt lat="43.51452" lon="6.31184">
        <ele>281.4</ele>
        <time>2016-12-11T14:03:50Z</time>
      </trkpt>
      <trkpt lat="43.51454" lon="6.3117">
        <ele>280.9</ele>
        <time>2016-12-11T14:03:58Z</time>
      </trkpt>
      <trkpt lat="43.51456" lon="6.31158">
        <ele>280.6</ele>
        <time>2016-12-11T14:04:06Z</time>
      </trkpt>
      <trkpt lat="43.5146" lon="6.31146">
        <ele>280.5</ele>
        <time>2016-12-11T14:04:11Z</time>
      </trkpt>
      <trkpt lat="43.5146" lon="6.31133">
        <ele>280.3</ele>
        <time>2016-12-11T14:04:22Z</time>
      </trkpt>
      <trkpt lat="43.51458" lon="6.3112">
        <ele>280.2</ele>
        <time>2016-12-11T14:04:29Z</time>
      </trkpt>
      <trkpt lat="43.51458" lon="6.31107">
        <ele>280.1</ele>
        <time>2016-12-11T14:04:36Z</time>
      </trkpt>
      <trkpt lat="43.51453" lon="6.31095">
        <ele>279.9</ele>
        <time>2016-12-11T14:04:44Z</time>
      </trkpt>
      <trkpt lat="43.51449" lon="6.31084">
        <ele>279.7</ele>
        <time>2016-12-11T14:04:52Z</time>
      </trkpt>
      <trkpt lat="43.51443" lon="6.31073">
        <ele>279.4</ele>
        <time>2016-12-11T14:05:00Z</time>
      </trkpt>
      <trkpt lat="43.51435" lon="6.31064">
        <ele>279.1</ele>
        <time>2016-12-11T14:05:09Z</time>
      </trkpt>
      <trkpt lat="43.51428" lon="6.31056">
        <ele>279</ele>
        <time>2016-12-11T14:05:16Z</time>
      </trkpt>
      <trkpt lat="43.51422" lon="6.31045">
        <ele>279</ele>
        <time>2016-12-11T14:05:24Z</time>
      </trkpt>
      <trkpt lat="43.51412" lon="6.31041">
        <ele>279</ele>
        <time>2016-12-11T14:05:31Z</time>
      </trkpt>
      <trkpt lat="43.51404" lon="6.31034">
        <ele>278.8</ele>
        <time>2016-12-11T14:05:38Z</time>
      </trkpt>
      <trkpt lat="43.51399" lon="6.31022">
        <ele>278.6</ele>
        <time>2016-12-11T14:05:46Z</time>
      </trkpt>
      <trkpt lat="43.51394" lon="6.31011">
        <ele>278.3</ele>
        <time>2016-12-11T14:05:54Z</time>
      </trkpt>
      <trkpt lat="43.51393" lon="6.30999">
        <ele>277.7</ele>
        <time>2016-12-11T14:06:02Z</time>
      </trkpt>
      <trkpt lat="43.51391" lon="6.30987">
        <ele>277.1</ele>
        <time>2016-12-11T14:06:11Z</time>
      </trkpt>
      <trkpt lat="43.51393" lon="6.30973">
        <ele>276.7</ele>
        <time>2016-12-11T14:06:20Z</time>
      </trkpt>
      <trkpt lat="43.51394" lon="6.30959">
        <ele>276.4</ele>
        <time>2016-12-11T14:06:29Z</time>
      </trkpt>
      <trkpt lat="43.51397" lon="6.30945">
        <ele>276.2</ele>
        <time>2016-12-11T14:06:37Z</time>
      </trkpt>
      <trkpt lat="43.514" lon="6.30934">
        <ele>276</ele>
        <time>2016-12-11T14:06:43Z</time>
      </trkpt>
      <trkpt lat="43.51404" lon="6.30922">
        <ele>275.7</ele>
        <time>2016-12-11T14:06:51Z</time>
      </trkpt>
      <trkpt lat="43.51406" lon="6.3091">
        <ele>275.5</ele>
        <time>2016-12-11T14:06:58Z</time>
      </trkpt>
      <trkpt lat="43.51404" lon="6.30897">
        <ele>275.4</ele>
        <time>2016-12-11T14:07:07Z</time>
      </trkpt>
      <trkpt lat="43.51404" lon="6.30884">
        <ele>275.1</ele>
        <time>2016-12-11T14:07:15Z</time>
      </trkpt>
      <trkpt lat="43.51407" lon="6.30872">
        <ele>274.8</ele>
        <time>2016-12-11T14:07:21Z</time>
      </trkpt>
      <trkpt lat="43.5141" lon="6.3086">
        <ele>274.5</ele>
        <time>2016-12-11T14:07:31Z</time>
      </trkpt>
      <trkpt lat="43.51417" lon="6.30849">
        <ele>274.3</ele>
        <time>2016-12-11T14:07:39Z</time>
      </trkpt>
      <trkpt lat="43.51425" lon="6.30841">
        <ele>274.2</ele>
        <time>2016-12-11T14:07:46Z</time>
      </trkpt>
      <trkpt lat="43.51434" lon="6.30832">
        <ele>273.5</ele>
        <time>2016-12-11T14:08:01Z</time>
      </trkpt>
      <trkpt lat="43.51443" lon="6.30826">
        <ele>273.1</ele>
        <time>2016-12-11T14:08:11Z</time>
      </trkpt>
      <trkpt lat="43.51451" lon="6.30818">
        <ele>272.9</ele>
        <time>2016-12-11T14:08:19Z</time>
      </trkpt>
      <trkpt lat="43.51459" lon="6.30813">
        <ele>272.8</ele>
        <time>2016-12-11T14:08:28Z</time>
      </trkpt>
      <trkpt lat="43.51467" lon="6.30803">
        <ele>272.7</ele>
        <time>2016-12-11T14:08:37Z</time>
      </trkpt>
      <trkpt lat="43.51472" lon="6.30792">
        <ele>272.7</ele>
        <time>2016-12-11T14:08:43Z</time>
      </trkpt>
      <trkpt lat="43.51477" lon="6.30782">
        <ele>272.8</ele>
        <time>2016-12-11T14:08:56Z</time>
      </trkpt>
      <trkpt lat="43.51485" lon="6.30776">
        <ele>272.8</ele>
        <time>2016-12-11T14:09:24Z</time>
      </trkpt>
      <trkpt lat="43.51478" lon="6.30767">
        <ele>272.9</ele>
        <time>2016-12-11T14:09:47Z</time>
      </trkpt>
      <trkpt lat="43.5147" lon="6.30759">
        <ele>273</ele>
        <time>2016-12-11T14:09:55Z</time>
      </trkpt>
      <trkpt lat="43.51462" lon="6.3075">
        <ele>272.7</ele>
        <time>2016-12-11T14:10:10Z</time>
      </trkpt>
      <trkpt lat="43.51454" lon="6.30743">
        <ele>272.6</ele>
        <time>2016-12-11T14:10:17Z</time>
      </trkpt>
      <trkpt lat="43.51447" lon="6.30735">
        <ele>272.5</ele>
        <time>2016-12-11T14:10:24Z</time>
      </trkpt>
      <trkpt lat="43.51438" lon="6.30728">
        <ele>272.1</ele>
        <time>2016-12-11T14:10:35Z</time>
      </trkpt>
      <trkpt lat="43.5143" lon="6.30721">
        <ele>271.8</ele>
        <time>2016-12-11T14:10:44Z</time>
      </trkpt>
      <trkpt lat="43.51422" lon="6.30716">
        <ele>271.3</ele>
        <time>2016-12-11T14:10:56Z</time>
      </trkpt>
      <trkpt lat="43.51414" lon="6.3071">
        <ele>270.8</ele>
        <time>2016-12-11T14:11:06Z</time>
      </trkpt>
      <trkpt lat="43.51404" lon="6.30706">
        <ele>270.4</ele>
        <time>2016-12-11T14:11:14Z</time>
      </trkpt>
      <trkpt lat="43.51395" lon="6.30704">
        <ele>269.6</ele>
        <time>2016-12-11T14:11:22Z</time>
      </trkpt>
      <trkpt lat="43.51391" lon="6.30692">
        <ele>268.9</ele>
        <time>2016-12-11T14:11:29Z</time>
      </trkpt>
      <trkpt lat="43.51383" lon="6.30686">
        <ele>268.3</ele>
        <time>2016-12-11T14:11:37Z</time>
      </trkpt>
      <trkpt lat="43.51374" lon="6.30682">
        <ele>268</ele>
        <time>2016-12-11T14:11:46Z</time>
      </trkpt>
      <trkpt lat="43.51371" lon="6.30669">
        <ele>267.7</ele>
        <time>2016-12-11T14:11:57Z</time>
      </trkpt>
      <trkpt lat="43.51364" lon="6.30659">
        <ele>267.5</ele>
        <time>2016-12-11T14:12:06Z</time>
      </trkpt>
      <trkpt lat="43.51358" lon="6.30648">
        <ele>267.4</ele>
        <time>2016-12-11T14:12:16Z</time>
      </trkpt>
      <trkpt lat="43.5135" lon="6.30642">
        <ele>267.4</ele>
        <time>2016-12-11T14:12:24Z</time>
      </trkpt>
      <trkpt lat="43.51341" lon="6.30637">
        <ele>267.4</ele>
        <time>2016-12-11T14:12:29Z</time>
      </trkpt>
      <trkpt lat="43.51332" lon="6.30632">
        <ele>267.4</ele>
        <time>2016-12-11T14:12:34Z</time>
      </trkpt>
      <trkpt lat="43.51324" lon="6.3063">
        <ele>267.2</ele>
        <time>2016-12-11T14:12:41Z</time>
      </trkpt>
      <trkpt lat="43.51315" lon="6.30626">
        <ele>266.8</ele>
        <time>2016-12-11T14:12:51Z</time>
      </trkpt>
      <trkpt lat="43.51306" lon="6.30627">
        <ele>266.4</ele>
        <time>2016-12-11T14:12:57Z</time>
      </trkpt>
      <trkpt lat="43.51297" lon="6.30625">
        <ele>266</ele>
        <time>2016-12-11T14:13:06Z</time>
      </trkpt>
      <trkpt lat="43.51288" lon="6.30624">
        <ele>265.7</ele>
        <time>2016-12-11T14:13:20Z</time>
      </trkpt>
      <trkpt lat="43.51279" lon="6.30617">
        <ele>265.5</ele>
        <time>2016-12-11T14:13:30Z</time>
      </trkpt>
      <trkpt lat="43.51274" lon="6.30606">
        <ele>265.2</ele>
        <time>2016-12-11T14:13:39Z</time>
      </trkpt>
      <trkpt lat="43.51267" lon="6.30597">
        <ele>264.8</ele>
        <time>2016-12-11T14:13:48Z</time>
      </trkpt>
      <trkpt lat="43.51262" lon="6.30585">
        <ele>264.1</ele>
        <time>2016-12-11T14:13:57Z</time>
      </trkpt>
      <trkpt lat="43.51256" lon="6.30575">
        <ele>263.5</ele>
        <time>2016-12-11T14:14:05Z</time>
      </trkpt>
      <trkpt lat="43.51248" lon="6.30569">
        <ele>263</ele>
        <time>2016-12-11T14:14:13Z</time>
      </trkpt>
      <trkpt lat="43.51241" lon="6.30561">
        <ele>262.7</ele>
        <time>2016-12-11T14:14:21Z</time>
      </trkpt>
      <trkpt lat="43.51232" lon="6.30555">
        <ele>262.4</ele>
        <time>2016-12-11T14:14:29Z</time>
      </trkpt>
      <trkpt lat="43.51222" lon="6.30553">
        <ele>262</ele>
        <time>2016-12-11T14:14:38Z</time>
      </trkpt>
      <trkpt lat="43.51213" lon="6.30551">
        <ele>262</ele>
        <time>2016-12-11T14:14:45Z</time>
      </trkpt>
      <trkpt lat="43.51204" lon="6.30552">
        <ele>261.9</ele>
        <time>2016-12-11T14:14:53Z</time>
      </trkpt>
      <trkpt lat="43.51194" lon="6.30554">
        <ele>261.5</ele>
        <time>2016-12-11T14:15:02Z</time>
      </trkpt>
      <trkpt lat="43.51185" lon="6.30553">
        <ele>261.3</ele>
        <time>2016-12-11T14:15:09Z</time>
      </trkpt>
      <trkpt lat="43.51176" lon="6.30554">
        <ele>260.7</ele>
        <time>2016-12-11T14:15:18Z</time>
      </trkpt>
      <trkpt lat="43.51167" lon="6.30552">
        <ele>260.2</ele>
        <time>2016-12-11T14:15:27Z</time>
      </trkpt>
      <trkpt lat="43.51158" lon="6.30549">
        <ele>259.9</ele>
        <time>2016-12-11T14:15:36Z</time>
      </trkpt>
      <trkpt lat="43.5115" lon="6.30543">
        <ele>259.8</ele>
        <time>2016-12-11T14:15:45Z</time>
      </trkpt>
      <trkpt lat="43.51141" lon="6.30537">
        <ele>259.8</ele>
        <time>2016-12-11T14:15:53Z</time>
      </trkpt>
      <trkpt lat="43.51132" lon="6.30532">
        <ele>259.9</ele>
        <time>2016-12-11T14:16:04Z</time>
      </trkpt>
      <trkpt lat="43.51123" lon="6.30526">
        <ele>259.8</ele>
        <time>2016-12-11T14:16:23Z</time>
      </trkpt>
      <trkpt lat="43.51116" lon="6.30518">
        <ele>259.2</ele>
        <time>2016-12-11T14:16:31Z</time>
      </trkpt>
      <trkpt lat="43.51109" lon="6.30509">
        <ele>258.6</ele>
        <time>2016-12-11T14:16:40Z</time>
      </trkpt>
      <trkpt lat="43.51102" lon="6.30499">
        <ele>258.2</ele>
        <time>2016-12-11T14:16:50Z</time>
      </trkpt>
      <trkpt lat="43.51094" lon="6.30492">
        <ele>258</ele>
        <time>2016-12-11T14:16:58Z</time>
      </trkpt>
      <trkpt lat="43.51086" lon="6.30485">
        <ele>257.8</ele>
        <time>2016-12-11T14:17:07Z</time>
      </trkpt>
      <trkpt lat="43.51078" lon="6.30478">
        <ele>257.8</ele>
        <time>2016-12-11T14:17:17Z</time>
      </trkpt>
      <trkpt lat="43.51069" lon="6.30474">
        <ele>258.1</ele>
        <time>2016-12-11T14:17:44Z</time>
      </trkpt>
    </trkseg>
  </trk>
</gpx>